Pastebin launched a little side project called VERYVIRAL.com, check it out ;-) Want more features on Pastebin? Sign Up, it's FREE!
Guest

Untitled

By: a guest on Jan 29th, 2012  |  syntax: None  |  size: 91.69 KB  |  views: 17  |  expires: Never
download  |  raw  |  embed  |  report abuse  |  print
Text below is selected. Please press Ctrl+C to copy to your clipboard. (⌘+C on Mac)
  1. 17:10:22 T:848  NOTICE: -----------------------------------------------------------------------
  2. 17:10:22 T:848  NOTICE: Starting XBMC (11.0-BETA2 Git:20120120-f76c547), Platform: Windows 7, 64-bit (WoW) Service Pack 1 build 7601. Built on Jan 20 2012 (compiler 1600)
  3. 17:10:22 T:848  NOTICE: Pentium(R) Dual-Core  CPU      E5700  @ 3.00GHz
  4. 17:10:22 T:848  NOTICE: Desktop Resolution: 1920x1080 32Bit at 60Hz
  5. 17:10:22 T:848  NOTICE: Running with administrator rights
  6. 17:10:22 T:848  NOTICE: Aero is enabled
  7. 17:10:22 T:848  NOTICE: special://xbmc/ is mapped to: C:\XBMC
  8. 17:10:22 T:848  NOTICE: special://xbmcbin/ is mapped to: C:\XBMC
  9. 17:10:22 T:848  NOTICE: special://masterprofile/ is mapped to: C:\Users\Zookeeper\AppData\Roaming\XBMC\userdata
  10. 17:10:22 T:848  NOTICE: special://home/ is mapped to: C:\Users\Zookeeper\AppData\Roaming\XBMC\
  11. 17:10:22 T:848  NOTICE: special://temp/ is mapped to: C:\Users\Zookeeper\AppData\Roaming\XBMC\cache
  12. 17:10:22 T:848  NOTICE: The executable running is: C:\XBMC\XBMC.exe
  13. 17:10:22 T:848  NOTICE: Local hostname: AnimalFarm
  14. 17:10:22 T:848  NOTICE: Log File is located: C:\Users\Zookeeper\AppData\Roaming\XBMC\xbmc.log
  15. 17:10:22 T:848  NOTICE: -----------------------------------------------------------------------
  16. 17:10:22 T:848  NOTICE: Setup SDL
  17. 17:10:22 T:848  NOTICE: Found screen: Philips FTV (PHL0000 EDID Override) on NVIDIA GeForce 9400, adapter 0.
  18. 17:10:22 T:848  NOTICE: Primary mode: 1920x1080 @ 60.00 - Full Screen
  19. 17:10:22 T:848  NOTICE: Additional mode: 640x480 @ 59.94 - Full Screen
  20. 17:10:22 T:848  NOTICE: Additional mode: 640x480 @ 60.00 - Full Screen
  21. 17:10:22 T:848  NOTICE: Additional mode: 720x480 @ 59.94 - Full Screen
  22. 17:10:22 T:848  NOTICE: Additional mode: 720x480 @ 60.00 - Full Screen
  23. 17:10:22 T:848  NOTICE: Additional mode: 720x576 @ 50.00 - Full Screen
  24. 17:10:22 T:848  NOTICE: Additional mode: 800x600 @ 60.00 - Full Screen
  25. 17:10:22 T:848  NOTICE: Additional mode: 1024x768 @ 60.00 - Full Screen
  26. 17:10:22 T:848  NOTICE: Additional mode: 1152x864 @ 60.00 - Full Screen
  27. 17:10:22 T:848  NOTICE: Previous line repeats 2 times.
  28. 17:10:22 T:848  NOTICE: Additional mode: 1176x664 @ 50.00 - Full Screen
  29. 17:10:22 T:848  NOTICE: Previous line repeats 2 times.
  30. 17:10:22 T:848  NOTICE: Additional mode: 1176x664 @ 59.94 - Full Screen
  31. 17:10:22 T:848  NOTICE: Additional mode: 1176x664 @ 60.00 - Full Screen
  32. 17:10:22 T:848  NOTICE: Additional mode: 1176x664 @ 59.94 - Full Screen
  33. 17:10:22 T:848  NOTICE: Additional mode: 1176x664 @ 60.00 - Full Screen
  34. 17:10:22 T:848  NOTICE: Additional mode: 1176x664 @ 59.94 - Full Screen
  35. 17:10:22 T:848  NOTICE: Additional mode: 1176x664 @ 60.00 - Full Screen
  36. 17:10:22 T:848  NOTICE: Additional mode: 1280x720 @ 50.00 - Full Screen
  37. 17:10:22 T:848  NOTICE: Additional mode: 1280x720 @ 59.94 - Full Screen
  38. 17:10:22 T:848  NOTICE: Additional mode: 1280x720 @ 60.00 - Full Screen
  39. 17:10:22 T:848  NOTICE: Additional mode: 1280x768 @ 60.00 - Full Screen
  40. 17:10:22 T:848  NOTICE: Previous line repeats 2 times.
  41. 17:10:22 T:848  NOTICE: Additional mode: 1280x800 @ 60.00 - Full Screen
  42. 17:10:22 T:848  NOTICE: Previous line repeats 2 times.
  43. 17:10:22 T:848  NOTICE: Additional mode: 1280x960 @ 60.00 - Full Screen
  44. 17:10:22 T:848  NOTICE: Previous line repeats 2 times.
  45. 17:10:22 T:848  NOTICE: Additional mode: 1280x1024 @ 60.00 - Full Screen
  46. 17:10:22 T:848  NOTICE: Additional mode: 1360x768 @ 60.00 - Full Screen
  47. 17:10:22 T:848  NOTICE: Previous line repeats 2 times.
  48. 17:10:22 T:848  NOTICE: Additional mode: 1360x768 @ 59.94 - Full Screen
  49. 17:10:22 T:848  NOTICE: Previous line repeats 2 times.
  50. 17:10:22 T:848  NOTICE: Additional mode: 1360x768 @ 50.00 - Full Screen
  51. 17:10:22 T:848  NOTICE: Previous line repeats 2 times.
  52. 17:10:22 T:848  NOTICE: Additional mode: 1360x768 @ 25.00i - Full Screen
  53. 17:10:22 T:848  NOTICE: Previous line repeats 2 times.
  54. 17:10:22 T:848  NOTICE: Additional mode: 1360x768 @ 24.00 - Full Screen
  55. 17:10:22 T:848  NOTICE: Previous line repeats 2 times.
  56. 17:10:22 T:848  NOTICE: Additional mode: 1360x768 @ 23.98 - Full Screen
  57. 17:10:22 T:848  NOTICE: Previous line repeats 2 times.
  58. 17:10:22 T:848  NOTICE: Additional mode: 1360x768 @ 30.00 - Full Screen
  59. 17:10:22 T:848  NOTICE: Previous line repeats 2 times.
  60. 17:10:22 T:848  NOTICE: Additional mode: 1360x768 @ 29.97 - Full Screen
  61. 17:10:22 T:848  NOTICE: Previous line repeats 2 times.
  62. 17:10:22 T:848  NOTICE: Additional mode: 1360x768 @ 25.00 - Full Screen
  63. 17:10:22 T:848  NOTICE: Previous line repeats 2 times.
  64. 17:10:22 T:848  NOTICE: Additional mode: 1360x768 @ 29.97i - Full Screen
  65. 17:10:22 T:848  NOTICE: Additional mode: 1360x768 @ 30.00i - Full Screen
  66. 17:10:22 T:848  NOTICE: Additional mode: 1360x768 @ 29.97i - Full Screen
  67. 17:10:22 T:848  NOTICE: Additional mode: 1360x768 @ 30.00i - Full Screen
  68. 17:10:22 T:848  NOTICE: Additional mode: 1360x768 @ 29.97i - Full Screen
  69. 17:10:22 T:848  NOTICE: Additional mode: 1360x768 @ 30.00i - Full Screen
  70. 17:10:22 T:848  NOTICE: Additional mode: 1366x768 @ 60.00 - Full Screen
  71. 17:10:22 T:848  NOTICE: Previous line repeats 2 times.
  72. 17:10:22 T:848  NOTICE: Additional mode: 1366x768 @ 59.94 - Full Screen
  73. 17:10:22 T:848  NOTICE: Previous line repeats 2 times.
  74. 17:10:22 T:848  NOTICE: Additional mode: 1366x768 @ 50.00 - Full Screen
  75. 17:10:22 T:848  NOTICE: Previous line repeats 2 times.
  76. 17:10:22 T:848  NOTICE: Additional mode: 1366x768 @ 25.00i - Full Screen
  77. 17:10:22 T:848  NOTICE: Previous line repeats 2 times.
  78. 17:10:22 T:848  NOTICE: Additional mode: 1366x768 @ 24.00 - Full Screen
  79. 17:10:22 T:848  NOTICE: Previous line repeats 2 times.
  80. 17:10:22 T:848  NOTICE: Additional mode: 1366x768 @ 23.98 - Full Screen
  81. 17:10:22 T:848  NOTICE: Previous line repeats 2 times.
  82. 17:10:22 T:848  NOTICE: Additional mode: 1366x768 @ 30.00 - Full Screen
  83. 17:10:22 T:848  NOTICE: Previous line repeats 2 times.
  84. 17:10:22 T:848  NOTICE: Additional mode: 1366x768 @ 29.97 - Full Screen
  85. 17:10:22 T:848  NOTICE: Previous line repeats 2 times.
  86. 17:10:22 T:848  NOTICE: Additional mode: 1366x768 @ 25.00 - Full Screen
  87. 17:10:22 T:848  NOTICE: Previous line repeats 2 times.
  88. 17:10:22 T:848  NOTICE: Additional mode: 1366x768 @ 29.97i - Full Screen
  89. 17:10:22 T:848  NOTICE: Additional mode: 1366x768 @ 30.00i - Full Screen
  90. 17:10:22 T:848  NOTICE: Additional mode: 1366x768 @ 29.97i - Full Screen
  91. 17:10:22 T:848  NOTICE: Additional mode: 1366x768 @ 30.00i - Full Screen
  92. 17:10:22 T:848  NOTICE: Additional mode: 1366x768 @ 29.97i - Full Screen
  93. 17:10:22 T:848  NOTICE: Additional mode: 1366x768 @ 30.00i - Full Screen
  94. 17:10:22 T:848  NOTICE: Additional mode: 1600x900 @ 60.00 - Full Screen
  95. 17:10:22 T:848  NOTICE: Previous line repeats 2 times.
  96. 17:10:22 T:848  NOTICE: Additional mode: 1600x900 @ 59.94 - Full Screen
  97. 17:10:22 T:848  NOTICE: Previous line repeats 2 times.
  98. 17:10:22 T:848  NOTICE: Additional mode: 1600x900 @ 50.00 - Full Screen
  99. 17:10:22 T:848  NOTICE: Previous line repeats 2 times.
  100. 17:10:22 T:848  NOTICE: Additional mode: 1600x900 @ 25.00i - Full Screen
  101. 17:10:22 T:848  NOTICE: Previous line repeats 2 times.
  102. 17:10:22 T:848  NOTICE: Additional mode: 1600x900 @ 24.00 - Full Screen
  103. 17:10:22 T:848  NOTICE: Previous line repeats 2 times.
  104. 17:10:22 T:848  NOTICE: Additional mode: 1600x900 @ 23.98 - Full Screen
  105. 17:10:22 T:848  NOTICE: Previous line repeats 2 times.
  106. 17:10:22 T:848  NOTICE: Additional mode: 1600x900 @ 30.00 - Full Screen
  107. 17:10:22 T:848  NOTICE: Previous line repeats 2 times.
  108. 17:10:22 T:848  NOTICE: Additional mode: 1600x900 @ 29.97 - Full Screen
  109. 17:10:22 T:848  NOTICE: Previous line repeats 2 times.
  110. 17:10:22 T:848  NOTICE: Additional mode: 1600x900 @ 25.00 - Full Screen
  111. 17:10:22 T:848  NOTICE: Previous line repeats 2 times.
  112. 17:10:22 T:848  NOTICE: Additional mode: 1600x900 @ 29.97i - Full Screen
  113. 17:10:22 T:848  NOTICE: Additional mode: 1600x900 @ 30.00i - Full Screen
  114. 17:10:22 T:848  NOTICE: Additional mode: 1600x900 @ 29.97i - Full Screen
  115. 17:10:22 T:848  NOTICE: Additional mode: 1600x900 @ 30.00i - Full Screen
  116. 17:10:22 T:848  NOTICE: Additional mode: 1600x900 @ 29.97i - Full Screen
  117. 17:10:22 T:848  NOTICE: Additional mode: 1600x900 @ 30.00i - Full Screen
  118. 17:10:22 T:848  NOTICE: Additional mode: 1600x1024 @ 60.00 - Full Screen
  119. 17:10:22 T:848  NOTICE: Previous line repeats 2 times.
  120. 17:10:22 T:848  NOTICE: Additional mode: 1600x1024 @ 59.94 - Full Screen
  121. 17:10:22 T:848  NOTICE: Previous line repeats 2 times.
  122. 17:10:22 T:848  NOTICE: Additional mode: 1600x1024 @ 50.00 - Full Screen
  123. 17:10:22 T:848  NOTICE: Previous line repeats 2 times.
  124. 17:10:22 T:848  NOTICE: Additional mode: 1600x1024 @ 25.00i - Full Screen
  125. 17:10:22 T:848  NOTICE: Previous line repeats 2 times.
  126. 17:10:22 T:848  NOTICE: Additional mode: 1600x1024 @ 24.00 - Full Screen
  127. 17:10:22 T:848  NOTICE: Previous line repeats 2 times.
  128. 17:10:22 T:848  NOTICE: Additional mode: 1600x1024 @ 23.98 - Full Screen
  129. 17:10:22 T:848  NOTICE: Previous line repeats 2 times.
  130. 17:10:22 T:848  NOTICE: Additional mode: 1600x1024 @ 30.00 - Full Screen
  131. 17:10:22 T:848  NOTICE: Previous line repeats 2 times.
  132. 17:10:22 T:848  NOTICE: Additional mode: 1600x1024 @ 29.97 - Full Screen
  133. 17:10:22 T:848  NOTICE: Previous line repeats 2 times.
  134. 17:10:22 T:848  NOTICE: Additional mode: 1600x1024 @ 25.00 - Full Screen
  135. 17:10:22 T:848  NOTICE: Previous line repeats 2 times.
  136. 17:10:22 T:848  NOTICE: Additional mode: 1600x1024 @ 29.97i - Full Screen
  137. 17:10:22 T:848  NOTICE: Additional mode: 1600x1024 @ 30.00i - Full Screen
  138. 17:10:22 T:848  NOTICE: Additional mode: 1600x1024 @ 29.97i - Full Screen
  139. 17:10:22 T:848  NOTICE: Additional mode: 1600x1024 @ 30.00i - Full Screen
  140. 17:10:22 T:848  NOTICE: Additional mode: 1600x1024 @ 29.97i - Full Screen
  141. 17:10:22 T:848  NOTICE: Additional mode: 1600x1024 @ 30.00i - Full Screen
  142. 17:10:22 T:848  NOTICE: Additional mode: 1600x1200 @ 60.00 - Full Screen
  143. 17:10:22 T:848  NOTICE: Additional mode: 1680x1050 @ 60.00 - Full Screen
  144. 17:10:22 T:848  NOTICE: Previous line repeats 2 times.
  145. 17:10:22 T:848  NOTICE: Additional mode: 1680x1050 @ 59.94 - Full Screen
  146. 17:10:22 T:848  NOTICE: Previous line repeats 2 times.
  147. 17:10:22 T:848  NOTICE: Additional mode: 1680x1050 @ 50.00 - Full Screen
  148. 17:10:22 T:848  NOTICE: Previous line repeats 2 times.
  149. 17:10:22 T:848  NOTICE: Additional mode: 1680x1050 @ 25.00i - Full Screen
  150. 17:10:22 T:848  NOTICE: Previous line repeats 2 times.
  151. 17:10:22 T:848  NOTICE: Additional mode: 1680x1050 @ 24.00 - Full Screen
  152. 17:10:22 T:848  NOTICE: Previous line repeats 2 times.
  153. 17:10:22 T:848  NOTICE: Additional mode: 1680x1050 @ 23.98 - Full Screen
  154. 17:10:22 T:848  NOTICE: Previous line repeats 2 times.
  155. 17:10:22 T:848  NOTICE: Additional mode: 1680x1050 @ 30.00 - Full Screen
  156. 17:10:22 T:848  NOTICE: Previous line repeats 2 times.
  157. 17:10:22 T:848  NOTICE: Additional mode: 1680x1050 @ 29.97 - Full Screen
  158. 17:10:22 T:848  NOTICE: Previous line repeats 2 times.
  159. 17:10:22 T:848  NOTICE: Additional mode: 1680x1050 @ 25.00 - Full Screen
  160. 17:10:22 T:848  NOTICE: Previous line repeats 2 times.
  161. 17:10:22 T:848  NOTICE: Additional mode: 1680x1050 @ 29.97i - Full Screen
  162. 17:10:22 T:848  NOTICE: Additional mode: 1680x1050 @ 30.00i - Full Screen
  163. 17:10:22 T:848  NOTICE: Additional mode: 1680x1050 @ 29.97i - Full Screen
  164. 17:10:22 T:848  NOTICE: Additional mode: 1680x1050 @ 30.00i - Full Screen
  165. 17:10:22 T:848  NOTICE: Additional mode: 1680x1050 @ 29.97i - Full Screen
  166. 17:10:22 T:848  NOTICE: Additional mode: 1680x1050 @ 30.00i - Full Screen
  167. 17:10:22 T:848  NOTICE: Additional mode: 1768x992 @ 25.00i - Full Screen
  168. 17:10:22 T:848  NOTICE: Previous line repeats 2 times.
  169. 17:10:22 T:848  NOTICE: Additional mode: 1768x992 @ 29.97i - Full Screen
  170. 17:10:22 T:848  NOTICE: Additional mode: 1768x992 @ 30.00i - Full Screen
  171. 17:10:22 T:848  NOTICE: Additional mode: 1768x992 @ 29.97i - Full Screen
  172. 17:10:22 T:848  NOTICE: Additional mode: 1768x992 @ 30.00i - Full Screen
  173. 17:10:22 T:848  NOTICE: Additional mode: 1768x992 @ 29.97i - Full Screen
  174. 17:10:22 T:848  NOTICE: Additional mode: 1768x992 @ 30.00i - Full Screen
  175. 17:10:22 T:848  NOTICE: Additional mode: 1920x1080 @ 60.00 - Full Screen
  176. 17:10:22 T:848  NOTICE: Additional mode: 1920x1080 @ 59.94 - Full Screen
  177. 17:10:22 T:848  NOTICE: Additional mode: 1920x1080 @ 50.00 - Full Screen
  178. 17:10:22 T:848  NOTICE: Additional mode: 1920x1080 @ 25.00i - Full Screen
  179. 17:10:22 T:848  NOTICE: Additional mode: 1920x1080 @ 24.00 - Full Screen
  180. 17:10:22 T:848  NOTICE: Additional mode: 1920x1080 @ 23.98 - Full Screen
  181. 17:10:22 T:848  NOTICE: Additional mode: 1920x1080 @ 30.00 - Full Screen
  182. 17:10:22 T:848  NOTICE: Additional mode: 1920x1080 @ 29.97 - Full Screen
  183. 17:10:22 T:848  NOTICE: Additional mode: 1920x1080 @ 25.00 - Full Screen
  184. 17:10:22 T:848  NOTICE: Additional mode: 1920x1080 @ 29.97i - Full Screen
  185. 17:10:22 T:848  NOTICE: Additional mode: 1920x1080 @ 30.00i - Full Screen
  186. 17:10:22 T:848  NOTICE: Additional mode: 1360x765 @ 60.00 - Full Screen
  187. 17:10:22 T:848  NOTICE: load settings...
  188. 17:10:22 T:848  NOTICE: special://profile/ is mapped to: special://masterprofile/
  189. 17:10:22 T:848  NOTICE: loading special://masterprofile/guisettings.xml
  190. 17:10:22 T:848  NOTICE: Getting hardware information now...
  191. 17:10:22 T:848  NOTICE: Checking resolution 12
  192. 17:10:22 T:848  NOTICE: Loading player core factory settings from special://xbmc/system/playercorefactory.xml.
  193. 17:10:22 T:848  NOTICE: Loaded playercorefactory configuration
  194. 17:10:22 T:848  NOTICE: Loading player core factory settings from special://masterprofile/playercorefactory.xml.
  195. 17:10:22 T:848  NOTICE: special://masterprofile/playercorefactory.xml does not exist. Skipping.
  196. 17:10:22 T:848  NOTICE: No settings file to load (special://xbmc/system/advancedsettings.xml)
  197. 17:10:22 T:848  NOTICE: Loaded settings file from special://profile/advancedsettings.xml
  198. 17:10:22 T:848  NOTICE: Contents of special://profile/advancedsettings.xml are...
  199.                                             <advancedsettings>
  200.                                               <pathsubstitution>
  201.                                                 <substitute>
  202.                                                   <from>special://masterprofile/Thumbnails</from>
  203.                                                   <to>C:\Cage\XBMC Addons\Thumbnails</to>
  204.                                                 </substitute>
  205.                                               </pathsubstitution>
  206.                                               <videolibrary>
  207.                                                 <flattenmoviesets>false</flattenmoviesets>
  208.                                               </videolibrary>
  209.                                             </advancedsettings>
  210. 17:10:22 T:848  NOTICE: Getting hardware information now...
  211. 17:10:22 T:848  NOTICE: Checking resolution 12
  212. 17:10:22 T:848  NOTICE: Default DVD Player: dvdplayer
  213. 17:10:22 T:848  NOTICE: Default Video Player: dvdplayer
  214. 17:10:22 T:848  NOTICE: Default Audio Player: paplayer
  215. 17:10:22 T:848  NOTICE: Disabled debug logging due to GUI setting. Level 0.
  216. 17:10:22 T:848  NOTICE: Log level changed to 0
  217. 17:10:22 T:848  NOTICE: Loading media sources from special://masterprofile/sources.xml
  218. 17:10:23 T:848  NOTICE: initializing playlistplayer
  219. 17:10:23 T:848  NOTICE: DONE initializing playlistplayer
  220. 17:10:24 T:848   ERROR: ADDON: extension 'downloader\' is not currently supported for service addon
  221. 17:10:24 T:884  NOTICE: -->Python Interpreter Initialized<--
  222. 17:10:24 T:848   ERROR: ADDON: extension 'downloader\' is not currently supported for service addon
  223. 17:10:24 T:848  NOTICE: initialize done
  224. 17:10:24 T:848  NOTICE: Running the application...
  225. 17:10:24 T:2528  NOTICE: -->Python Interpreter Initialized<--
  226. 17:10:24 T:848  NOTICE: ES: Starting event server
  227. 17:10:24 T:2616  NOTICE: -->Python Interpreter Initialized<--
  228. 17:10:24 T:860  NOTICE: ES: Starting UDP Event server on 0.0.0.0:9777
  229. 17:10:24 T:860  NOTICE: UDP: Listening on port 9777
  230. 17:10:24 T:2616  NOTICE: RCB Service: Start
  231. 17:10:24 T:2616  NOTICE: RCB Service: launch RCB on startup =
  232. 17:10:24 T:2616  NOTICE: RCB Service: scrape games on startup = false
  233. 17:10:24 T:2616  NOTICE: RCB Service: Done
  234. 17:10:24 T:2592  NOTICE: -->Python Interpreter Initialized<--
  235. 17:10:24 T:2592  NOTICE:  StorageServer Module loaded RUN
  236. 17:10:24 T:2592  NOTICE: StorageClient-0.9.1 Starting server
  237. 17:10:24 T:884  NOTICE: Artwork Downloader: Service - Run at startup: False
  238. 17:10:24 T:884  NOTICE: Artwork Downloader: Service - Delayed startup: 00 minutes
  239. 17:10:24 T:884  NOTICE: Artwork Downloader: Service - Run as service: False
  240. 17:10:24 T:884  NOTICE: Artwork Downloader: Service - Time: 00:00
  241. 17:10:24 T:2036   ERROR: CRemoteControl::Connect - failed to connect
  242. 17:10:25 T:2336  NOTICE: -->Python Interpreter Initialized<--
  243. 17:10:44 T:848  NOTICE: Log level changed to 2
  244. 17:10:44 T:848  NOTICE: Enabled debug logging due to GUI setting. Level 2.
  245. 17:10:44 T:848   DEBUG: ------ Window Init () ------
  246. 17:10:46 T:848   DEBUG: SDLKeyboard: scancode: 01, sym: 001b, unicode: 001b, modifier: 0
  247. 17:10:46 T:848   DEBUG: CApplication::OnKey: escape (f01b) pressed, action is PreviousMenu
  248. 17:10:46 T:848   DEBUG: CGUIWindowManager::PreviousWindow: Deactivate
  249. 17:10:46 T:848   DEBUG: ------ Window Deinit (SettingsCategory.xml) ------
  250. 17:10:46 T:848   DEBUG: CGUIWindowManager::PreviousWindow: Activate new
  251. 17:10:46 T:848   DEBUG: ------ Window Init (Settings.xml) ------
  252. 17:10:46 T:848    INFO: Loading skin file: Settings.xml
  253. 17:10:47 T:848   DEBUG: SDLKeyboard: scancode: 01, sym: 001b, unicode: 001b, modifier: 0
  254. 17:10:47 T:848   DEBUG: CApplication::OnKey: escape (f01b) pressed, action is PreviousMenu
  255. 17:10:47 T:848   DEBUG: CGUIWindowManager::PreviousWindow: Deactivate
  256. 17:10:47 T:848   DEBUG: ------ Window Deinit (Settings.xml) ------
  257. 17:10:47 T:848   DEBUG: CGUIWindowManager::PreviousWindow: Activate new
  258. 17:10:47 T:848   DEBUG: ------ Window Init (Home.xml) ------
  259. 17:10:47 T:848    INFO: Loading skin file: Home.xml
  260. 17:10:47 T:848   DEBUG: CApplication::ExecuteXBMCAction : Translating ClearProperty(DontRunTVShowScripts,Home)
  261. 17:10:47 T:848   DEBUG: CApplication::ExecuteXBMCAction : To ClearProperty(DontRunTVShowScripts,Home)
  262. 17:10:47 T:1844   DEBUG: CImageLoader::DoWork - took 111 ms to load special://masterprofile/Thumbnails/e/ed53785e.jpg
  263. 17:10:48 T:848   DEBUG: SDLKeyboard: scancode: 4b, sym: 0114, unicode: 0000, modifier: 0
  264. 17:10:48 T:848   DEBUG: CApplication::OnKey: left (f082) pressed, action is Left
  265. 17:10:48 T:848   DEBUG: SDLKeyboard: scancode: 4b, sym: 0114, unicode: 0000, modifier: 0
  266. 17:10:48 T:848   DEBUG: CApplication::OnKey: left (f082) pressed, action is Left
  267. 17:10:48 T:848   DEBUG: SDLKeyboard: scancode: 4b, sym: 0114, unicode: 0000, modifier: 0
  268. 17:10:48 T:848   DEBUG: CApplication::OnKey: left (f082) pressed, action is Left
  269. 17:10:48 T:848   DEBUG: SDLKeyboard: scancode: 4b, sym: 0114, unicode: 0000, modifier: 0
  270. 17:10:48 T:848   DEBUG: CApplication::OnKey: left (f082) pressed, action is Left
  271. 17:10:49 T:848   DEBUG: SDLKeyboard: scancode: 1c, sym: 000d, unicode: 000d, modifier: 0
  272. 17:10:49 T:848   DEBUG: CApplication::OnKey: return (f00d) pressed, action is Select
  273. 17:10:49 T:848   DEBUG: CApplication::ExecuteXBMCAction : Translating SetProperty(DontRunTVShowScripts,True,Home)
  274. 17:10:49 T:848   DEBUG: CApplication::ExecuteXBMCAction : To SetProperty(DontRunTVShowScripts,True,Home)
  275. 17:10:49 T:848   DEBUG: CApplication::ExecuteXBMCAction : Translating ActivateWindow(Videos,MovieTitles,return)
  276. 17:10:49 T:848   DEBUG: CApplication::ExecuteXBMCAction : To ActivateWindow(Videos,MovieTitles,return)
  277. 17:10:49 T:848   DEBUG: Activating window ID: 10025
  278. 17:10:49 T:848   DEBUG: ------ Window Deinit (Home.xml) ------
  279. 17:10:49 T:848   DEBUG: CApplication::ExecuteXBMCAction : Translating CancelAlarm(WidgetMove,true)
  280. 17:10:49 T:848   DEBUG: CApplication::ExecuteXBMCAction : To CancelAlarm(WidgetMove,true)
  281. 17:10:49 T:848   DEBUG: CApplication::ExecuteXBMCAction : Translating CancelAlarm(WidgetMoveTwo,true)
  282. 17:10:49 T:848   DEBUG: CApplication::ExecuteXBMCAction : To CancelAlarm(WidgetMoveTwo,true)
  283. 17:10:49 T:848   DEBUG: ------ Window Init (MyVideoNav.xml) ------
  284. 17:10:49 T:848    INFO: Loading skin file: MyVideoNav.xml
  285. 17:10:50 T:848   DEBUG: CGUIMediaWindow::GetDirectory (videodb://1/2/)
  286. 17:10:50 T:848   DEBUG:   ParentPath = [videodb://1/2/]
  287. 17:10:50 T:848   DEBUG: CVideoDatabase::RunQuery took 1 ms for 8 items query: SELECT sets.idSet,sets.strSet,COUNT(1) AS c,count(files.playCount) FROM sets JOIN setlinkmovie ON sets.idSet=setlinkmovie.idSet JOIN movie ON setlinkmovie.idMovie=movie.idMovie JOIN files ON files.idFile=movie.idFile  GROUP BY sets.idSet HAVING c>1
  288. 17:10:50 T:848   DEBUG: CVideoDatabase::RunQuery took 3 ms for 75 items query: select * from movieview WHERE movieview.idMovie NOT IN (SELECT idMovie FROM setlinkmovie s1 JOIN(SELECT idSet, COUNT(1) AS c FROM setlinkmovie GROUP BY idSet HAVING c>1) s2 ON s2.idSet=s1.idSet)
  289. 17:10:50 T:848   DEBUG: Saving fileitems [videodb://1/2/]
  290. 17:10:50 T:848   DEBUG:   -- items: 83, sort method: 25, ascending: true
  291. 17:10:50 T:484   DEBUG: Thread Background Loader start, auto delete: 0
  292. 17:10:50 T:1800   DEBUG: CTextureCache::GetImageHash - unable to stat url X:\EXT06\Movies\A Christmas Story\logo.png
  293. 17:10:50 T:484   DEBUG: Thread Background Loader 484 terminating
  294. 17:10:51 T:848   DEBUG: SDLKeyboard: scancode: 50, sym: 0112, unicode: 0000, modifier: 0
  295. 17:10:51 T:848   DEBUG: CApplication::OnKey: down (f081) pressed, action is Down
  296. 17:10:51 T:1800   DEBUG: CTextureCache::GetImageHash - unable to stat url X:\EXT06\Movies\American Radical\logo.png
  297. 17:10:51 T:848   DEBUG: SDLKeyboard: scancode: 2e, sym: 0063, unicode: 0063, modifier: 0
  298. 17:10:51 T:848   DEBUG: CApplication::OnKey: c (f043) pressed, action is ContextMenu
  299. 17:10:51 T:848   DEBUG: CPlayerCoreFactory::GetPlayers(X:\EXT06\Movies\American Radical\American Radical.avi)
  300. 17:10:51 T:848   DEBUG: CPlayerSelectionRule::GetPlayers: considering rule: system rules
  301. 17:10:51 T:848   DEBUG: CPlayerSelectionRule::GetPlayers: matches rule: system rules
  302. 17:10:51 T:848   DEBUG: CPlayerSelectionRule::GetPlayers: considering rule: rtv
  303. 17:10:51 T:848   DEBUG: CPlayerSelectionRule::GetPlayers: considering rule: hdhomerun/myth/rtmp/mms/udp
  304. 17:10:51 T:848   DEBUG: CPlayerSelectionRule::GetPlayers: considering rule: lastfm/shout
  305. 17:10:51 T:848   DEBUG: CPlayerSelectionRule::GetPlayers: considering rule: rtsp
  306. 17:10:51 T:848   DEBUG: CPlayerSelectionRule::GetPlayers: considering rule: streams
  307. 17:10:51 T:848   DEBUG: CPlayerSelectionRule::GetPlayers: considering rule: dvd
  308. 17:10:51 T:848   DEBUG: CPlayerSelectionRule::GetPlayers: considering rule: dvdfile
  309. 17:10:51 T:848   DEBUG: CPlayerSelectionRule::GetPlayers: considering rule: dvdimage
  310. 17:10:51 T:848   DEBUG: CPlayerSelectionRule::GetPlayers: considering rule: sdp/asf
  311. 17:10:51 T:848   DEBUG: CPlayerSelectionRule::GetPlayers: considering rule: nsv
  312. 17:10:51 T:848   DEBUG: CPlayerCoreFactory::GetPlayers: matched 0 rules with players
  313. 17:10:51 T:848   DEBUG: CPlayerCoreFactory::GetPlayers: adding videodefaultplayer (1)
  314. 17:10:51 T:848   DEBUG: CPlayerCoreFactory::GetPlayers: for video=1, audio=0
  315. 17:10:51 T:848   DEBUG: CPlayerCoreFactory::GetPlayers: for video=1, audio=1
  316. 17:10:51 T:848   DEBUG: CPlayerCoreFactory::GetPlayers: adding player: DVDPlayer (1)
  317. 17:10:51 T:848   DEBUG: CPlayerCoreFactory::GetPlayers: added 1 players
  318. 17:10:51 T:848   DEBUG: CFavourites::Load - no system favourites found, skipping
  319. 17:10:51 T:848    INFO: Loading skin file: DialogContextMenu.xml
  320. 17:10:51 T:848   DEBUG: ------ Window Init (DialogContextMenu.xml) ------
  321. 17:10:52 T:848   DEBUG: SDLKeyboard: scancode: 2e, sym: 0063, unicode: 0063, modifier: 0
  322. 17:10:52 T:848   DEBUG: CApplication::OnKey: c (f043) pressed, action is Back
  323. 17:10:53 T:848   DEBUG: ------ Window Deinit (DialogContextMenu.xml) ------
  324. 17:10:53 T:848   DEBUG: SDLKeyboard: scancode: 50, sym: 0112, unicode: 0000, modifier: 0
  325. 17:10:53 T:848   DEBUG: CApplication::OnKey: down (f081) pressed, action is Down
  326. 17:10:53 T:1844   DEBUG: CTextureCache::GetImageHash - unable to stat url X:\EXT06\Movies\The Babysitters (2007)\logo.png
  327. 17:10:53 T:848   DEBUG: SDLKeyboard: scancode: 2e, sym: 0063, unicode: 0063, modifier: 0
  328. 17:10:53 T:848   DEBUG: CApplication::OnKey: c (f043) pressed, action is ContextMenu
  329. 17:10:53 T:848   DEBUG: CPlayerCoreFactory::GetPlayers(X:\EXT06\Movies\The Babysitters (2007)\The.Babysitters.2007.DVDRip.XviD.AC3-TDP.[UsaBit.com].avi)
  330. 17:10:53 T:848   DEBUG: CPlayerSelectionRule::GetPlayers: considering rule: system rules
  331. 17:10:53 T:848   DEBUG: CPlayerSelectionRule::GetPlayers: matches rule: system rules
  332. 17:10:53 T:848   DEBUG: CPlayerSelectionRule::GetPlayers: considering rule: rtv
  333. 17:10:53 T:848   DEBUG: CPlayerSelectionRule::GetPlayers: considering rule: hdhomerun/myth/rtmp/mms/udp
  334. 17:10:53 T:848   DEBUG: CPlayerSelectionRule::GetPlayers: considering rule: lastfm/shout
  335. 17:10:53 T:848   DEBUG: CPlayerSelectionRule::GetPlayers: considering rule: rtsp
  336. 17:10:53 T:848   DEBUG: CPlayerSelectionRule::GetPlayers: considering rule: streams
  337. 17:10:53 T:848   DEBUG: CPlayerSelectionRule::GetPlayers: considering rule: dvd
  338. 17:10:53 T:848   DEBUG: CPlayerSelectionRule::GetPlayers: considering rule: dvdfile
  339. 17:10:53 T:848   DEBUG: CPlayerSelectionRule::GetPlayers: considering rule: dvdimage
  340. 17:10:53 T:848   DEBUG: CPlayerSelectionRule::GetPlayers: considering rule: sdp/asf
  341. 17:10:53 T:848   DEBUG: CPlayerSelectionRule::GetPlayers: considering rule: nsv
  342. 17:10:53 T:848   DEBUG: CPlayerCoreFactory::GetPlayers: matched 0 rules with players
  343. 17:10:53 T:848   DEBUG: CPlayerCoreFactory::GetPlayers: adding videodefaultplayer (1)
  344. 17:10:53 T:848   DEBUG: CPlayerCoreFactory::GetPlayers: for video=1, audio=0
  345. 17:10:53 T:848   DEBUG: CPlayerCoreFactory::GetPlayers: for video=1, audio=1
  346. 17:10:53 T:848   DEBUG: CPlayerCoreFactory::GetPlayers: adding player: DVDPlayer (1)
  347. 17:10:53 T:848   DEBUG: CPlayerCoreFactory::GetPlayers: added 1 players
  348. 17:10:53 T:848   DEBUG: CFavourites::Load - no system favourites found, skipping
  349. 17:10:53 T:848    INFO: Loading skin file: DialogContextMenu.xml
  350. 17:10:53 T:848   DEBUG: ------ Window Init (DialogContextMenu.xml) ------
  351. 17:10:54 T:848   DEBUG: SDLKeyboard: scancode: 2e, sym: 0063, unicode: 0063, modifier: 0
  352. 17:10:54 T:848   DEBUG: CApplication::OnKey: c (f043) pressed, action is Back
  353. 17:10:55 T:848   DEBUG: ------ Window Deinit (DialogContextMenu.xml) ------
  354. 17:10:55 T:848   DEBUG: SDLKeyboard: scancode: 50, sym: 0112, unicode: 0000, modifier: 0
  355. 17:10:55 T:848   DEBUG: CApplication::OnKey: down (f081) pressed, action is Down
  356. 17:10:55 T:1844   DEBUG: CTextureCache::GetImageHash - unable to stat url X:\EXT06\Movies\Back to School\logo.png
  357. 17:10:55 T:848   DEBUG: SDLKeyboard: scancode: 2e, sym: 0063, unicode: 0063, modifier: 0
  358. 17:10:55 T:848   DEBUG: CApplication::OnKey: c (f043) pressed, action is ContextMenu
  359. 17:10:55 T:848   DEBUG: CPlayerCoreFactory::GetPlayers(X:\EXT06\Movies\Back to School\Back to School.avi)
  360. 17:10:55 T:848   DEBUG: CPlayerSelectionRule::GetPlayers: considering rule: system rules
  361. 17:10:55 T:848   DEBUG: CPlayerSelectionRule::GetPlayers: matches rule: system rules
  362. 17:10:55 T:848   DEBUG: CPlayerSelectionRule::GetPlayers: considering rule: rtv
  363. 17:10:55 T:848   DEBUG: CPlayerSelectionRule::GetPlayers: considering rule: hdhomerun/myth/rtmp/mms/udp
  364. 17:10:55 T:848   DEBUG: CPlayerSelectionRule::GetPlayers: considering rule: lastfm/shout
  365. 17:10:55 T:848   DEBUG: CPlayerSelectionRule::GetPlayers: considering rule: rtsp
  366. 17:10:55 T:848   DEBUG: CPlayerSelectionRule::GetPlayers: considering rule: streams
  367. 17:10:55 T:848   DEBUG: CPlayerSelectionRule::GetPlayers: considering rule: dvd
  368. 17:10:55 T:848   DEBUG: CPlayerSelectionRule::GetPlayers: considering rule: dvdfile
  369. 17:10:55 T:848   DEBUG: CPlayerSelectionRule::GetPlayers: considering rule: dvdimage
  370. 17:10:55 T:848   DEBUG: CPlayerSelectionRule::GetPlayers: considering rule: sdp/asf
  371. 17:10:55 T:848   DEBUG: CPlayerSelectionRule::GetPlayers: considering rule: nsv
  372. 17:10:55 T:848   DEBUG: CPlayerCoreFactory::GetPlayers: matched 0 rules with players
  373. 17:10:55 T:848   DEBUG: CPlayerCoreFactory::GetPlayers: adding videodefaultplayer (1)
  374. 17:10:55 T:848   DEBUG: CPlayerCoreFactory::GetPlayers: for video=1, audio=0
  375. 17:10:55 T:848   DEBUG: CPlayerCoreFactory::GetPlayers: for video=1, audio=1
  376. 17:10:55 T:848   DEBUG: CPlayerCoreFactory::GetPlayers: adding player: DVDPlayer (1)
  377. 17:10:55 T:848   DEBUG: CPlayerCoreFactory::GetPlayers: added 1 players
  378. 17:10:55 T:848   DEBUG: CFavourites::Load - no system favourites found, skipping
  379. 17:10:55 T:848    INFO: Loading skin file: DialogContextMenu.xml
  380. 17:10:55 T:848   DEBUG: ------ Window Init (DialogContextMenu.xml) ------
  381. 17:10:56 T:848   DEBUG: SDLKeyboard: scancode: 2e, sym: 0063, unicode: 0063, modifier: 0
  382. 17:10:56 T:848   DEBUG: CApplication::OnKey: c (f043) pressed, action is Back
  383. 17:10:56 T:848   DEBUG: ------ Window Deinit (DialogContextMenu.xml) ------
  384. 17:10:57 T:848   DEBUG: SDLKeyboard: scancode: 50, sym: 0112, unicode: 0000, modifier: 0
  385. 17:10:57 T:848   DEBUG: CApplication::OnKey: down (f081) pressed, action is Down
  386. 17:10:57 T:1844   DEBUG: CTextureCache::GetImageHash - unable to stat url X:\EXT06\Movies\Bad Teacher (2011) (Unrated)\logo.png
  387. 17:10:57 T:848   DEBUG: SDLKeyboard: scancode: 2e, sym: 0063, unicode: 0063, modifier: 0
  388. 17:10:57 T:848   DEBUG: CApplication::OnKey: c (f043) pressed, action is ContextMenu
  389. 17:10:57 T:848   DEBUG: CPlayerCoreFactory::GetPlayers(X:\EXT06\Movies\Bad Teacher (2011) (Unrated)\f-bad.teacher.720.mkv)
  390. 17:10:57 T:848   DEBUG: CPlayerSelectionRule::GetPlayers: considering rule: system rules
  391. 17:10:57 T:848   DEBUG: CPlayerSelectionRule::GetPlayers: matches rule: system rules
  392. 17:10:57 T:848   DEBUG: CPlayerSelectionRule::GetPlayers: considering rule: rtv
  393. 17:10:57 T:848   DEBUG: CPlayerSelectionRule::GetPlayers: considering rule: hdhomerun/myth/rtmp/mms/udp
  394. 17:10:57 T:848   DEBUG: CPlayerSelectionRule::GetPlayers: considering rule: lastfm/shout
  395. 17:10:57 T:848   DEBUG: CPlayerSelectionRule::GetPlayers: considering rule: rtsp
  396. 17:10:57 T:848   DEBUG: CPlayerSelectionRule::GetPlayers: considering rule: streams
  397. 17:10:57 T:848   DEBUG: CPlayerSelectionRule::GetPlayers: considering rule: dvd
  398. 17:10:57 T:848   DEBUG: CPlayerSelectionRule::GetPlayers: considering rule: dvdfile
  399. 17:10:57 T:848   DEBUG: CPlayerSelectionRule::GetPlayers: considering rule: dvdimage
  400. 17:10:57 T:848   DEBUG: CPlayerSelectionRule::GetPlayers: considering rule: sdp/asf
  401. 17:10:57 T:848   DEBUG: CPlayerSelectionRule::GetPlayers: considering rule: nsv
  402. 17:10:57 T:848   DEBUG: CPlayerCoreFactory::GetPlayers: matched 0 rules with players
  403. 17:10:57 T:848   DEBUG: CPlayerCoreFactory::GetPlayers: adding videodefaultplayer (1)
  404. 17:10:57 T:848   DEBUG: CPlayerCoreFactory::GetPlayers: for video=1, audio=0
  405. 17:10:57 T:848   DEBUG: CPlayerCoreFactory::GetPlayers: for video=1, audio=1
  406. 17:10:57 T:848   DEBUG: CPlayerCoreFactory::GetPlayers: adding player: DVDPlayer (1)
  407. 17:10:57 T:848   DEBUG: CPlayerCoreFactory::GetPlayers: added 1 players
  408. 17:10:57 T:848   DEBUG: CFavourites::Load - no system favourites found, skipping
  409. 17:10:57 T:848    INFO: Loading skin file: DialogContextMenu.xml
  410. 17:10:57 T:848   DEBUG: ------ Window Init (DialogContextMenu.xml) ------
  411. 17:10:58 T:848   DEBUG: SDLKeyboard: scancode: 2e, sym: 0063, unicode: 0063, modifier: 0
  412. 17:10:58 T:848   DEBUG: CApplication::OnKey: c (f043) pressed, action is Back
  413. 17:10:58 T:848   DEBUG: ------ Window Deinit (DialogContextMenu.xml) ------
  414. 17:10:58 T:848   DEBUG: SDLKeyboard: scancode: 50, sym: 0112, unicode: 0000, modifier: 0
  415. 17:10:58 T:848   DEBUG: CApplication::OnKey: down (f081) pressed, action is Down
  416. 17:10:58 T:1800   DEBUG: CTextureCache::GetImageHash - unable to stat url X:\EXT06\Movies\The Bank Job\logo.png
  417. 17:10:59 T:848   DEBUG: SDLKeyboard: scancode: 2e, sym: 0063, unicode: 0063, modifier: 0
  418. 17:10:59 T:848   DEBUG: CApplication::OnKey: c (f043) pressed, action is ContextMenu
  419. 17:10:59 T:848   DEBUG: CPlayerCoreFactory::GetPlayers(X:\EXT06\Movies\The Bank Job\The Bank Job.mkv)
  420. 17:10:59 T:848   DEBUG: CPlayerSelectionRule::GetPlayers: considering rule: system rules
  421. 17:10:59 T:848   DEBUG: CPlayerSelectionRule::GetPlayers: matches rule: system rules
  422. 17:10:59 T:848   DEBUG: CPlayerSelectionRule::GetPlayers: considering rule: rtv
  423. 17:10:59 T:848   DEBUG: CPlayerSelectionRule::GetPlayers: considering rule: hdhomerun/myth/rtmp/mms/udp
  424. 17:10:59 T:848   DEBUG: CPlayerSelectionRule::GetPlayers: considering rule: lastfm/shout
  425. 17:10:59 T:848   DEBUG: CPlayerSelectionRule::GetPlayers: considering rule: rtsp
  426. 17:10:59 T:848   DEBUG: CPlayerSelectionRule::GetPlayers: considering rule: streams
  427. 17:10:59 T:848   DEBUG: CPlayerSelectionRule::GetPlayers: considering rule: dvd
  428. 17:10:59 T:848   DEBUG: CPlayerSelectionRule::GetPlayers: considering rule: dvdfile
  429. 17:10:59 T:848   DEBUG: CPlayerSelectionRule::GetPlayers: considering rule: dvdimage
  430. 17:10:59 T:848   DEBUG: CPlayerSelectionRule::GetPlayers: considering rule: sdp/asf
  431. 17:10:59 T:848   DEBUG: CPlayerSelectionRule::GetPlayers: considering rule: nsv
  432. 17:10:59 T:848   DEBUG: CPlayerCoreFactory::GetPlayers: matched 0 rules with players
  433. 17:10:59 T:848   DEBUG: CPlayerCoreFactory::GetPlayers: adding videodefaultplayer (1)
  434. 17:10:59 T:848   DEBUG: CPlayerCoreFactory::GetPlayers: for video=1, audio=0
  435. 17:10:59 T:848   DEBUG: CPlayerCoreFactory::GetPlayers: for video=1, audio=1
  436. 17:10:59 T:848   DEBUG: CPlayerCoreFactory::GetPlayers: adding player: DVDPlayer (1)
  437. 17:10:59 T:848   DEBUG: CPlayerCoreFactory::GetPlayers: added 1 players
  438. 17:10:59 T:848   DEBUG: CFavourites::Load - no system favourites found, skipping
  439. 17:10:59 T:848    INFO: Loading skin file: DialogContextMenu.xml
  440. 17:10:59 T:848   DEBUG: ------ Window Init (DialogContextMenu.xml) ------
  441. 17:10:59 T:848   DEBUG: SDLKeyboard: scancode: 2e, sym: 0063, unicode: 0063, modifier: 0
  442. 17:10:59 T:848   DEBUG: CApplication::OnKey: c (f043) pressed, action is Back
  443. 17:11:00 T:848   DEBUG: ------ Window Deinit (DialogContextMenu.xml) ------
  444. 17:11:00 T:848   DEBUG: SDLKeyboard: scancode: 50, sym: 0112, unicode: 0000, modifier: 0
  445. 17:11:00 T:848   DEBUG: CApplication::OnKey: down (f081) pressed, action is Down
  446. 17:11:00 T:1844   DEBUG: CTextureCache::GetImageHash - unable to stat url X:\EXT06\Movies\Beetlejuice\logo.png
  447. 17:11:00 T:848   DEBUG: SDLKeyboard: scancode: 2e, sym: 0063, unicode: 0063, modifier: 0
  448. 17:11:00 T:848   DEBUG: CApplication::OnKey: c (f043) pressed, action is ContextMenu
  449. 17:11:00 T:848   DEBUG: CPlayerCoreFactory::GetPlayers(X:\EXT06\Movies\Beetlejuice\Beetlejuice.avi)
  450. 17:11:00 T:848   DEBUG: CPlayerSelectionRule::GetPlayers: considering rule: system rules
  451. 17:11:00 T:848   DEBUG: CPlayerSelectionRule::GetPlayers: matches rule: system rules
  452. 17:11:00 T:848   DEBUG: CPlayerSelectionRule::GetPlayers: considering rule: rtv
  453. 17:11:00 T:848   DEBUG: CPlayerSelectionRule::GetPlayers: considering rule: hdhomerun/myth/rtmp/mms/udp
  454. 17:11:00 T:848   DEBUG: CPlayerSelectionRule::GetPlayers: considering rule: lastfm/shout
  455. 17:11:00 T:848   DEBUG: CPlayerSelectionRule::GetPlayers: considering rule: rtsp
  456. 17:11:00 T:848   DEBUG: CPlayerSelectionRule::GetPlayers: considering rule: streams
  457. 17:11:00 T:848   DEBUG: CPlayerSelectionRule::GetPlayers: considering rule: dvd
  458. 17:11:00 T:848   DEBUG: CPlayerSelectionRule::GetPlayers: considering rule: dvdfile
  459. 17:11:00 T:848   DEBUG: CPlayerSelectionRule::GetPlayers: considering rule: dvdimage
  460. 17:11:00 T:848   DEBUG: CPlayerSelectionRule::GetPlayers: considering rule: sdp/asf
  461. 17:11:00 T:848   DEBUG: CPlayerSelectionRule::GetPlayers: considering rule: nsv
  462. 17:11:00 T:848   DEBUG: CPlayerCoreFactory::GetPlayers: matched 0 rules with players
  463. 17:11:00 T:848   DEBUG: CPlayerCoreFactory::GetPlayers: adding videodefaultplayer (1)
  464. 17:11:00 T:848   DEBUG: CPlayerCoreFactory::GetPlayers: for video=1, audio=0
  465. 17:11:00 T:848   DEBUG: CPlayerCoreFactory::GetPlayers: for video=1, audio=1
  466. 17:11:00 T:848   DEBUG: CPlayerCoreFactory::GetPlayers: adding player: DVDPlayer (1)
  467. 17:11:00 T:848   DEBUG: CPlayerCoreFactory::GetPlayers: added 1 players
  468. 17:11:00 T:848   DEBUG: CFavourites::Load - no system favourites found, skipping
  469. 17:11:00 T:848    INFO: Loading skin file: DialogContextMenu.xml
  470. 17:11:00 T:848   DEBUG: ------ Window Init (DialogContextMenu.xml) ------
  471. 17:11:02 T:848   DEBUG: SDLKeyboard: scancode: 2e, sym: 0063, unicode: 0063, modifier: 0
  472. 17:11:02 T:848   DEBUG: CApplication::OnKey: c (f043) pressed, action is Back
  473. 17:11:02 T:848   DEBUG: ------ Window Deinit (DialogContextMenu.xml) ------
  474. 17:11:03 T:848   DEBUG: SDLKeyboard: scancode: 50, sym: 0112, unicode: 0000, modifier: 0
  475. 17:11:03 T:848   DEBUG: CApplication::OnKey: down (f081) pressed, action is Down
  476. 17:11:03 T:1800   DEBUG: CTextureCache::GetImageHash - unable to stat url X:\EXT06\Movies\Before the Devil Knows You're Dead\logo.png
  477. 17:11:03 T:848   DEBUG: SDLKeyboard: scancode: 2e, sym: 0063, unicode: 0063, modifier: 0
  478. 17:11:03 T:848   DEBUG: CApplication::OnKey: c (f043) pressed, action is ContextMenu
  479. 17:11:03 T:848   DEBUG: CPlayerCoreFactory::GetPlayers(X:\EXT06\Movies\Before the Devil Knows You're Dead\Before.The.Devil.Knows.You're.Dead[2007]DvDrip[Eng]-aXXo.avi)
  480. 17:11:03 T:848   DEBUG: CPlayerSelectionRule::GetPlayers: considering rule: system rules
  481. 17:11:03 T:848   DEBUG: CPlayerSelectionRule::GetPlayers: matches rule: system rules
  482. 17:11:03 T:848   DEBUG: CPlayerSelectionRule::GetPlayers: considering rule: rtv
  483. 17:11:03 T:848   DEBUG: CPlayerSelectionRule::GetPlayers: considering rule: hdhomerun/myth/rtmp/mms/udp
  484. 17:11:03 T:848   DEBUG: CPlayerSelectionRule::GetPlayers: considering rule: lastfm/shout
  485. 17:11:03 T:848   DEBUG: CPlayerSelectionRule::GetPlayers: considering rule: rtsp
  486. 17:11:03 T:848   DEBUG: CPlayerSelectionRule::GetPlayers: considering rule: streams
  487. 17:11:03 T:848   DEBUG: CPlayerSelectionRule::GetPlayers: considering rule: dvd
  488. 17:11:03 T:848   DEBUG: CPlayerSelectionRule::GetPlayers: considering rule: dvdfile
  489. 17:11:03 T:848   DEBUG: CPlayerSelectionRule::GetPlayers: considering rule: dvdimage
  490. 17:11:03 T:848   DEBUG: CPlayerSelectionRule::GetPlayers: considering rule: sdp/asf
  491. 17:11:03 T:848   DEBUG: CPlayerSelectionRule::GetPlayers: considering rule: nsv
  492. 17:11:03 T:848   DEBUG: CPlayerCoreFactory::GetPlayers: matched 0 rules with players
  493. 17:11:03 T:848   DEBUG: CPlayerCoreFactory::GetPlayers: adding videodefaultplayer (1)
  494. 17:11:03 T:848   DEBUG: CPlayerCoreFactory::GetPlayers: for video=1, audio=0
  495. 17:11:03 T:848   DEBUG: CPlayerCoreFactory::GetPlayers: for video=1, audio=1
  496. 17:11:03 T:848   DEBUG: CPlayerCoreFactory::GetPlayers: adding player: DVDPlayer (1)
  497. 17:11:03 T:848   DEBUG: CPlayerCoreFactory::GetPlayers: added 1 players
  498. 17:11:03 T:848   DEBUG: CFavourites::Load - no system favourites found, skipping
  499. 17:11:03 T:848    INFO: Loading skin file: DialogContextMenu.xml
  500. 17:11:03 T:848   DEBUG: ------ Window Init (DialogContextMenu.xml) ------
  501. 17:11:04 T:848   DEBUG: SDLKeyboard: scancode: 2e, sym: 0063, unicode: 0063, modifier: 0
  502. 17:11:04 T:848   DEBUG: CApplication::OnKey: c (f043) pressed, action is Back
  503. 17:11:04 T:848   DEBUG: ------ Window Deinit (DialogContextMenu.xml) ------
  504. 17:11:05 T:848   DEBUG: SDLKeyboard: scancode: 50, sym: 0112, unicode: 0000, modifier: 0
  505. 17:11:05 T:848   DEBUG: CApplication::OnKey: down (f081) pressed, action is Down
  506. 17:11:05 T:1844   DEBUG: CTextureCache::GetImageHash - unable to stat url X:\EXT06\Movies\Big Trouble in Little China\logo.png
  507. 17:11:06 T:848   DEBUG: SDLKeyboard: scancode: 2e, sym: 0063, unicode: 0063, modifier: 0
  508. 17:11:06 T:848   DEBUG: CApplication::OnKey: c (f043) pressed, action is ContextMenu
  509. 17:11:06 T:848   DEBUG: CPlayerCoreFactory::GetPlayers(X:\EXT06\Movies\Big Trouble in Little China\Big Trouble In Little China.avi)
  510. 17:11:06 T:848   DEBUG: CPlayerSelectionRule::GetPlayers: considering rule: system rules
  511. 17:11:06 T:848   DEBUG: CPlayerSelectionRule::GetPlayers: matches rule: system rules
  512. 17:11:06 T:848   DEBUG: CPlayerSelectionRule::GetPlayers: considering rule: rtv
  513. 17:11:06 T:848   DEBUG: CPlayerSelectionRule::GetPlayers: considering rule: hdhomerun/myth/rtmp/mms/udp
  514. 17:11:06 T:848   DEBUG: CPlayerSelectionRule::GetPlayers: considering rule: lastfm/shout
  515. 17:11:06 T:848   DEBUG: CPlayerSelectionRule::GetPlayers: considering rule: rtsp
  516. 17:11:06 T:848   DEBUG: CPlayerSelectionRule::GetPlayers: considering rule: streams
  517. 17:11:06 T:848   DEBUG: CPlayerSelectionRule::GetPlayers: considering rule: dvd
  518. 17:11:06 T:848   DEBUG: CPlayerSelectionRule::GetPlayers: considering rule: dvdfile
  519. 17:11:06 T:848   DEBUG: CPlayerSelectionRule::GetPlayers: considering rule: dvdimage
  520. 17:11:06 T:848   DEBUG: CPlayerSelectionRule::GetPlayers: considering rule: sdp/asf
  521. 17:11:06 T:848   DEBUG: CPlayerSelectionRule::GetPlayers: considering rule: nsv
  522. 17:11:06 T:848   DEBUG: CPlayerCoreFactory::GetPlayers: matched 0 rules with players
  523. 17:11:06 T:848   DEBUG: CPlayerCoreFactory::GetPlayers: adding videodefaultplayer (1)
  524. 17:11:06 T:848   DEBUG: CPlayerCoreFactory::GetPlayers: for video=1, audio=0
  525. 17:11:06 T:848   DEBUG: CPlayerCoreFactory::GetPlayers: for video=1, audio=1
  526. 17:11:06 T:848   DEBUG: CPlayerCoreFactory::GetPlayers: adding player: DVDPlayer (1)
  527. 17:11:06 T:848   DEBUG: CPlayerCoreFactory::GetPlayers: added 1 players
  528. 17:11:06 T:848   DEBUG: CFavourites::Load - no system favourites found, skipping
  529. 17:11:06 T:848    INFO: Loading skin file: DialogContextMenu.xml
  530. 17:11:06 T:848   DEBUG: ------ Window Init (DialogContextMenu.xml) ------
  531. 17:11:07 T:848   DEBUG: SDLKeyboard: scancode: 2e, sym: 0063, unicode: 0063, modifier: 0
  532. 17:11:07 T:848   DEBUG: CApplication::OnKey: c (f043) pressed, action is Back
  533. 17:11:07 T:848   DEBUG: ------ Window Deinit (DialogContextMenu.xml) ------
  534. 17:11:07 T:848   DEBUG: SDLKeyboard: scancode: 50, sym: 0112, unicode: 0000, modifier: 0
  535. 17:11:07 T:848   DEBUG: CApplication::OnKey: down (f081) pressed, action is Down
  536. 17:11:07 T:1800   DEBUG: Caching image 'videodb://1/7/1/logo.png' as '0/06af6806.png' full size
  537. 17:11:07 T:1800    INFO: Caching image from: videodb://1/7/1/logo.png to special://masterprofile/Thumbnails/0/06af6806.png
  538. 17:11:08 T:848   DEBUG: SDLKeyboard: scancode: 2e, sym: 0063, unicode: 0063, modifier: 0
  539. 17:11:08 T:848   DEBUG: CApplication::OnKey: c (f043) pressed, action is ContextMenu
  540. 17:11:08 T:848   DEBUG: CFavourites::Load - no system favourites found, skipping
  541. 17:11:08 T:848    INFO: Loading skin file: DialogContextMenu.xml
  542. 17:11:08 T:848   DEBUG: ------ Window Init (DialogContextMenu.xml) ------
  543. 17:11:09 T:848   DEBUG: SDLKeyboard: scancode: 2e, sym: 0063, unicode: 0063, modifier: 0
  544. 17:11:09 T:848   DEBUG: CApplication::OnKey: c (f043) pressed, action is Back
  545. 17:11:09 T:848   DEBUG: ------ Window Deinit (DialogContextMenu.xml) ------
  546. 17:11:09 T:848   DEBUG: SDLKeyboard: scancode: 50, sym: 0112, unicode: 0000, modifier: 0
  547. 17:11:09 T:848   DEBUG: CApplication::OnKey: down (f081) pressed, action is Down
  548. 17:11:09 T:1800   DEBUG: CTextureCache::GetImageHash - unable to stat url X:\EXT06\Movies\The Blues Brothers\logo.png
  549. 17:11:09 T:848   DEBUG: SDLKeyboard: scancode: 2e, sym: 0063, unicode: 0063, modifier: 0
  550. 17:11:09 T:848   DEBUG: CApplication::OnKey: c (f043) pressed, action is ContextMenu
  551. 17:11:09 T:848   DEBUG: CPlayerCoreFactory::GetPlayers(X:\EXT06\Movies\The Blues Brothers\The Blues Brothers.avi)
  552. 17:11:09 T:848   DEBUG: CPlayerSelectionRule::GetPlayers: considering rule: system rules
  553. 17:11:09 T:848   DEBUG: CPlayerSelectionRule::GetPlayers: matches rule: system rules
  554. 17:11:09 T:848   DEBUG: CPlayerSelectionRule::GetPlayers: considering rule: rtv
  555. 17:11:09 T:848   DEBUG: CPlayerSelectionRule::GetPlayers: considering rule: hdhomerun/myth/rtmp/mms/udp
  556. 17:11:09 T:848   DEBUG: CPlayerSelectionRule::GetPlayers: considering rule: lastfm/shout
  557. 17:11:09 T:848   DEBUG: CPlayerSelectionRule::GetPlayers: considering rule: rtsp
  558. 17:11:09 T:848   DEBUG: CPlayerSelectionRule::GetPlayers: considering rule: streams
  559. 17:11:09 T:848   DEBUG: CPlayerSelectionRule::GetPlayers: considering rule: dvd
  560. 17:11:09 T:848   DEBUG: CPlayerSelectionRule::GetPlayers: considering rule: dvdfile
  561. 17:11:09 T:848   DEBUG: CPlayerSelectionRule::GetPlayers: considering rule: dvdimage
  562. 17:11:09 T:848   DEBUG: CPlayerSelectionRule::GetPlayers: considering rule: sdp/asf
  563. 17:11:09 T:848   DEBUG: CPlayerSelectionRule::GetPlayers: considering rule: nsv
  564. 17:11:09 T:848   DEBUG: CPlayerCoreFactory::GetPlayers: matched 0 rules with players
  565. 17:11:09 T:848   DEBUG: CPlayerCoreFactory::GetPlayers: adding videodefaultplayer (1)
  566. 17:11:09 T:848   DEBUG: CPlayerCoreFactory::GetPlayers: for video=1, audio=0
  567. 17:11:09 T:848   DEBUG: CPlayerCoreFactory::GetPlayers: for video=1, audio=1
  568. 17:11:09 T:848   DEBUG: CPlayerCoreFactory::GetPlayers: adding player: DVDPlayer (1)
  569. 17:11:09 T:848   DEBUG: CPlayerCoreFactory::GetPlayers: added 1 players
  570. 17:11:09 T:848   DEBUG: CFavourites::Load - no system favourites found, skipping
  571. 17:11:09 T:848    INFO: Loading skin file: DialogContextMenu.xml
  572. 17:11:09 T:848   DEBUG: ------ Window Init (DialogContextMenu.xml) ------
  573. 17:11:10 T:848   DEBUG: SDLKeyboard: scancode: 2e, sym: 0063, unicode: 0063, modifier: 0
  574. 17:11:10 T:848   DEBUG: CApplication::OnKey: c (f043) pressed, action is Back
  575. 17:11:11 T:848   DEBUG: ------ Window Deinit (DialogContextMenu.xml) ------
  576. 17:11:11 T:848   DEBUG: SDLKeyboard: scancode: 50, sym: 0112, unicode: 0000, modifier: 0
  577. 17:11:11 T:848   DEBUG: CApplication::OnKey: down (f081) pressed, action is Down
  578. 17:11:11 T:1800   DEBUG: CTextureCache::GetImageHash - unable to stat url X:\EXT06\Movies\Caddyshack 1\logo.png
  579. 17:11:11 T:848   DEBUG: SDLKeyboard: scancode: 2e, sym: 0063, unicode: 0063, modifier: 0
  580. 17:11:11 T:848   DEBUG: CApplication::OnKey: c (f043) pressed, action is ContextMenu
  581. 17:11:11 T:848   DEBUG: CPlayerCoreFactory::GetPlayers(X:\EXT06\Movies\Caddyshack 1\Caddyshack 1.avi)
  582. 17:11:11 T:848   DEBUG: CPlayerSelectionRule::GetPlayers: considering rule: system rules
  583. 17:11:11 T:848   DEBUG: CPlayerSelectionRule::GetPlayers: matches rule: system rules
  584. 17:11:11 T:848   DEBUG: CPlayerSelectionRule::GetPlayers: considering rule: rtv
  585. 17:11:11 T:848   DEBUG: CPlayerSelectionRule::GetPlayers: considering rule: hdhomerun/myth/rtmp/mms/udp
  586. 17:11:11 T:848   DEBUG: CPlayerSelectionRule::GetPlayers: considering rule: lastfm/shout
  587. 17:11:11 T:848   DEBUG: CPlayerSelectionRule::GetPlayers: considering rule: rtsp
  588. 17:11:11 T:848   DEBUG: CPlayerSelectionRule::GetPlayers: considering rule: streams
  589. 17:11:11 T:848   DEBUG: CPlayerSelectionRule::GetPlayers: considering rule: dvd
  590. 17:11:11 T:848   DEBUG: CPlayerSelectionRule::GetPlayers: considering rule: dvdfile
  591. 17:11:11 T:848   DEBUG: CPlayerSelectionRule::GetPlayers: considering rule: dvdimage
  592. 17:11:11 T:848   DEBUG: CPlayerSelectionRule::GetPlayers: considering rule: sdp/asf
  593. 17:11:11 T:848   DEBUG: CPlayerSelectionRule::GetPlayers: considering rule: nsv
  594. 17:11:11 T:848   DEBUG: CPlayerCoreFactory::GetPlayers: matched 0 rules with players
  595. 17:11:11 T:848   DEBUG: CPlayerCoreFactory::GetPlayers: adding videodefaultplayer (1)
  596. 17:11:11 T:848   DEBUG: CPlayerCoreFactory::GetPlayers: for video=1, audio=0
  597. 17:11:11 T:848   DEBUG: CPlayerCoreFactory::GetPlayers: for video=1, audio=1
  598. 17:11:11 T:848   DEBUG: CPlayerCoreFactory::GetPlayers: adding player: DVDPlayer (1)
  599. 17:11:11 T:848   DEBUG: CPlayerCoreFactory::GetPlayers: added 1 players
  600. 17:11:11 T:848   DEBUG: CFavourites::Load - no system favourites found, skipping
  601. 17:11:11 T:848    INFO: Loading skin file: DialogContextMenu.xml
  602. 17:11:11 T:848   DEBUG: ------ Window Init (DialogContextMenu.xml) ------
  603. 17:11:12 T:848   DEBUG: SDLKeyboard: scancode: 2e, sym: 0063, unicode: 0063, modifier: 0
  604. 17:11:12 T:848   DEBUG: CApplication::OnKey: c (f043) pressed, action is Back
  605. 17:11:12 T:848   DEBUG: ------ Window Deinit (DialogContextMenu.xml) ------
  606. 17:11:12 T:848   DEBUG: SDLKeyboard: scancode: 50, sym: 0112, unicode: 0000, modifier: 0
  607. 17:11:12 T:848   DEBUG: CApplication::OnKey: down (f081) pressed, action is Down
  608. 17:11:12 T:1844   DEBUG: CTextureCache::GetImageHash - unable to stat url X:\EXT06\Movies\Caddyshack 2\logo.png
  609. 17:11:13 T:848   DEBUG: SDLKeyboard: scancode: 2e, sym: 0063, unicode: 0063, modifier: 0
  610. 17:11:13 T:848   DEBUG: CApplication::OnKey: c (f043) pressed, action is ContextMenu
  611. 17:11:13 T:848   DEBUG: CPlayerCoreFactory::GetPlayers(X:\EXT06\Movies\Caddyshack 2\Caddyshack 2.avi)
  612. 17:11:13 T:848   DEBUG: CPlayerSelectionRule::GetPlayers: considering rule: system rules
  613. 17:11:13 T:848   DEBUG: CPlayerSelectionRule::GetPlayers: matches rule: system rules
  614. 17:11:13 T:848   DEBUG: CPlayerSelectionRule::GetPlayers: considering rule: rtv
  615. 17:11:13 T:848   DEBUG: CPlayerSelectionRule::GetPlayers: considering rule: hdhomerun/myth/rtmp/mms/udp
  616. 17:11:13 T:848   DEBUG: CPlayerSelectionRule::GetPlayers: considering rule: lastfm/shout
  617. 17:11:13 T:848   DEBUG: CPlayerSelectionRule::GetPlayers: considering rule: rtsp
  618. 17:11:13 T:848   DEBUG: CPlayerSelectionRule::GetPlayers: considering rule: streams
  619. 17:11:13 T:848   DEBUG: CPlayerSelectionRule::GetPlayers: considering rule: dvd
  620. 17:11:13 T:848   DEBUG: CPlayerSelectionRule::GetPlayers: considering rule: dvdfile
  621. 17:11:13 T:848   DEBUG: CPlayerSelectionRule::GetPlayers: considering rule: dvdimage
  622. 17:11:13 T:848   DEBUG: CPlayerSelectionRule::GetPlayers: considering rule: sdp/asf
  623. 17:11:13 T:848   DEBUG: CPlayerSelectionRule::GetPlayers: considering rule: nsv
  624. 17:11:13 T:848   DEBUG: CPlayerCoreFactory::GetPlayers: matched 0 rules with players
  625. 17:11:13 T:848   DEBUG: CPlayerCoreFactory::GetPlayers: adding videodefaultplayer (1)
  626. 17:11:13 T:848   DEBUG: CPlayerCoreFactory::GetPlayers: for video=1, audio=0
  627. 17:11:13 T:848   DEBUG: CPlayerCoreFactory::GetPlayers: for video=1, audio=1
  628. 17:11:13 T:848   DEBUG: CPlayerCoreFactory::GetPlayers: adding player: DVDPlayer (1)
  629. 17:11:13 T:848   DEBUG: CPlayerCoreFactory::GetPlayers: added 1 players
  630. 17:11:13 T:848   DEBUG: CFavourites::Load - no system favourites found, skipping
  631. 17:11:13 T:848    INFO: Loading skin file: DialogContextMenu.xml
  632. 17:11:13 T:848   DEBUG: ------ Window Init (DialogContextMenu.xml) ------
  633. 17:11:13 T:848   DEBUG: SDLKeyboard: scancode: 2e, sym: 0063, unicode: 0063, modifier: 0
  634. 17:11:13 T:848   DEBUG: CApplication::OnKey: c (f043) pressed, action is Back
  635. 17:11:13 T:848   DEBUG: ------ Window Deinit (DialogContextMenu.xml) ------
  636. 17:11:14 T:848   DEBUG: SDLKeyboard: scancode: 50, sym: 0112, unicode: 0000, modifier: 0
  637. 17:11:14 T:848   DEBUG: CApplication::OnKey: down (f081) pressed, action is Down
  638. 17:11:14 T:1800   DEBUG: Caching image 'videodb://1/7/2/logo.png' as '8/83df9518.png' full size
  639. 17:11:14 T:1800    INFO: Caching image from: videodb://1/7/2/logo.png to special://masterprofile/Thumbnails/8/83df9518.png
  640. 17:11:14 T:848   DEBUG: SDLKeyboard: scancode: 2e, sym: 0063, unicode: 0063, modifier: 0
  641. 17:11:14 T:848   DEBUG: CApplication::OnKey: c (f043) pressed, action is ContextMenu
  642. 17:11:14 T:848   DEBUG: CFavourites::Load - no system favourites found, skipping
  643. 17:11:14 T:848    INFO: Loading skin file: DialogContextMenu.xml
  644. 17:11:14 T:848   DEBUG: ------ Window Init (DialogContextMenu.xml) ------
  645. 17:11:15 T:848   DEBUG: SDLKeyboard: scancode: 2e, sym: 0063, unicode: 0063, modifier: 0
  646. 17:11:15 T:848   DEBUG: CApplication::OnKey: c (f043) pressed, action is Back
  647. 17:11:15 T:848   DEBUG: ------ Window Deinit (DialogContextMenu.xml) ------
  648. 17:11:15 T:848   DEBUG: SDLKeyboard: scancode: 50, sym: 0112, unicode: 0000, modifier: 0
  649. 17:11:15 T:848   DEBUG: CApplication::OnKey: down (f081) pressed, action is Down
  650. 17:11:15 T:240   DEBUG: Caching image 'videodb://1/7/3/logo.png' as '0/034f357f.png' full size
  651. 17:11:15 T:240    INFO: Caching image from: videodb://1/7/3/logo.png to special://masterprofile/Thumbnails/0/034f357f.png
  652. 17:11:15 T:848   DEBUG: SDLKeyboard: scancode: 2e, sym: 0063, unicode: 0063, modifier: 0
  653. 17:11:15 T:848   DEBUG: CApplication::OnKey: c (f043) pressed, action is ContextMenu
  654. 17:11:15 T:848   DEBUG: CFavourites::Load - no system favourites found, skipping
  655. 17:11:15 T:848    INFO: Loading skin file: DialogContextMenu.xml
  656. 17:11:15 T:848   DEBUG: ------ Window Init (DialogContextMenu.xml) ------
  657. 17:11:16 T:848   DEBUG: SDLKeyboard: scancode: 2e, sym: 0063, unicode: 0063, modifier: 0
  658. 17:11:16 T:848   DEBUG: CApplication::OnKey: c (f043) pressed, action is Back
  659. 17:11:16 T:848   DEBUG: ------ Window Deinit (DialogContextMenu.xml) ------
  660. 17:11:16 T:848   DEBUG: SDLKeyboard: scancode: 50, sym: 0112, unicode: 0000, modifier: 0
  661. 17:11:16 T:848   DEBUG: CApplication::OnKey: down (f081) pressed, action is Down
  662. 17:11:16 T:1800   DEBUG: Caching image 'videodb://1/7/4/logo.png' as '8/8dff7293.png' full size
  663. 17:11:16 T:1800    INFO: Caching image from: videodb://1/7/4/logo.png to special://masterprofile/Thumbnails/8/8dff7293.png
  664. 17:11:17 T:848   DEBUG: SDLKeyboard: scancode: 2e, sym: 0063, unicode: 0063, modifier: 0
  665. 17:11:17 T:848   DEBUG: CApplication::OnKey: c (f043) pressed, action is ContextMenu
  666. 17:11:17 T:848   DEBUG: CFavourites::Load - no system favourites found, skipping
  667. 17:11:17 T:848    INFO: Loading skin file: DialogContextMenu.xml
  668. 17:11:17 T:848   DEBUG: ------ Window Init (DialogContextMenu.xml) ------
  669. 17:11:17 T:848   DEBUG: SDLKeyboard: scancode: 2e, sym: 0063, unicode: 0063, modifier: 0
  670. 17:11:17 T:848   DEBUG: CApplication::OnKey: c (f043) pressed, action is Back
  671. 17:11:17 T:848   DEBUG: ------ Window Deinit (DialogContextMenu.xml) ------
  672. 17:11:18 T:848   DEBUG: SDLKeyboard: scancode: 50, sym: 0112, unicode: 0000, modifier: 0
  673. 17:11:18 T:848   DEBUG: CApplication::OnKey: down (f081) pressed, action is Down
  674. 17:11:18 T:1844   DEBUG: CTextureCache::GetImageHash - unable to stat url X:\EXT06\Movies\Decoys\logo.png
  675. 17:11:18 T:848   DEBUG: SDLKeyboard: scancode: 50, sym: 0112, unicode: 0000, modifier: 0
  676. 17:11:18 T:848   DEBUG: CApplication::OnKey: down (f081) pressed, action is Down
  677. 17:11:18 T:1800   DEBUG: CTextureCache::GetImageHash - unable to stat url X:\EXT06\Movies\Definite Article\logo.png
  678. 17:11:18 T:848   DEBUG: SDLKeyboard: scancode: 50, sym: 0112, unicode: 0000, modifier: 0
  679. 17:11:18 T:848   DEBUG: CApplication::OnKey: down (f081) pressed, action is Down
  680. 17:11:18 T:1800   DEBUG: CTextureCache::GetImageHash - unable to stat url X:\EXT06\Movies\Deliverance (1972)\logo.png
  681. 17:11:18 T:848   DEBUG: SDLKeyboard: scancode: 50, sym: 0112, unicode: 0000, modifier: 0
  682. 17:11:18 T:848   DEBUG: CApplication::OnKey: down (f081) pressed, action is Down
  683. 17:11:18 T:240   DEBUG: CTextureCache::GetImageHash - unable to stat url X:\EXT06\Movies\Descent\logo.png
  684. 17:11:18 T:848   DEBUG: SDLKeyboard: scancode: 50, sym: 0112, unicode: 0000, modifier: 0
  685. 17:11:18 T:848   DEBUG: CApplication::OnKey: down (f081) pressed, action is Down
  686. 17:11:18 T:1800   DEBUG: CTextureCache::GetImageHash - unable to stat url X:\EXT06\Movies\The Devil's Double\logo.png
  687. 17:11:18 T:848   DEBUG: SDLKeyboard: scancode: 50, sym: 0112, unicode: 0000, modifier: 0
  688. 17:11:18 T:848   DEBUG: CApplication::OnKey: down (f081) pressed, action is Down
  689. 17:11:18 T:240   DEBUG: Caching image 'videodb://1/7/5/logo.png' as '0/0d6fd2f4.png' full size
  690. 17:11:18 T:240    INFO: Caching image from: videodb://1/7/5/logo.png to special://masterprofile/Thumbnails/0/0d6fd2f4.png
  691. 17:11:18 T:848   DEBUG: SDLKeyboard: scancode: 50, sym: 0112, unicode: 0000, modifier: 0
  692. 17:11:18 T:848   DEBUG: CApplication::OnKey: down (f081) pressed, action is Down
  693. 17:11:18 T:1800   DEBUG: CTextureCache::GetImageHash - unable to stat url X:\EXT06\Movies\Dragnet\logo.png
  694. 17:11:18 T:848   DEBUG: SDLKeyboard: scancode: 50, sym: 0112, unicode: 0000, modifier: 0
  695. 17:11:18 T:848   DEBUG: CApplication::OnKey: down (f081) pressed, action is Down
  696. 17:11:18 T:1800   DEBUG: CTextureCache::GetImageHash - unable to stat url X:\EXT06\Movies\Drop Dead Fred\logo.png
  697. 17:11:18 T:848   DEBUG: SDLKeyboard: scancode: 50, sym: 0112, unicode: 0000, modifier: 0
  698. 17:11:18 T:848   DEBUG: CApplication::OnKey: down (f081) pressed, action is Down
  699. 17:11:18 T:1800   DEBUG: Caching image 'videodb://1/7/7/logo.png' as '0/088f8f8d.png' full size
  700. 17:11:18 T:1800    INFO: Caching image from: videodb://1/7/7/logo.png to special://masterprofile/Thumbnails/0/088f8f8d.png
  701. 17:11:18 T:848   DEBUG: SDLKeyboard: scancode: 50, sym: 0112, unicode: 0000, modifier: 0
  702. 17:11:18 T:848   DEBUG: CApplication::OnKey: down (f081) pressed, action is Down
  703. 17:11:18 T:1800   DEBUG: CTextureCache::GetImageHash - unable to stat url X:\EXT06\Movies\Easy Money\logo.png
  704. 17:11:18 T:848   DEBUG: SDLKeyboard: scancode: 50, sym: 0112, unicode: 0000, modifier: 0
  705. 17:11:18 T:848   DEBUG: CApplication::OnKey: down (f081) pressed, action is Down
  706. 17:11:18 T:240   DEBUG: Caching image 'videodb://1/7/6/logo.png' as '8/881f2fea.png' full size
  707. 17:11:18 T:240    INFO: Caching image from: videodb://1/7/6/logo.png to special://masterprofile/Thumbnails/8/881f2fea.png
  708. 17:11:18 T:848   DEBUG: SDLKeyboard: scancode: 50, sym: 0112, unicode: 0000, modifier: 0
  709. 17:11:18 T:848   DEBUG: CApplication::OnKey: down (f081) pressed, action is Down
  710. 17:11:18 T:240   DEBUG: CTextureCache::GetImageHash - unable to stat url X:\EXT06\Movies\Ed Wood\logo.png
  711. 17:11:19 T:848   DEBUG: SDLKeyboard: scancode: 50, sym: 0112, unicode: 0000, modifier: 0
  712. 17:11:19 T:848   DEBUG: CApplication::OnKey: down (f081) pressed, action is Down
  713. 17:11:19 T:1800   DEBUG: CTextureCache::GetImageHash - unable to stat url X:\EXT06\Movies\Fallen\logo.png
  714. 17:11:19 T:848   DEBUG: SDLKeyboard: scancode: 50, sym: 0112, unicode: 0000, modifier: 0
  715. 17:11:19 T:848   DEBUG: CApplication::OnKey: down (f081) pressed, action is Down
  716. 17:11:19 T:1844   DEBUG: CTextureCache::GetImageHash - unable to stat url X:\EXT06\Movies\Falling Down\logo.png
  717. 17:11:19 T:848   DEBUG: SDLKeyboard: scancode: 50, sym: 0112, unicode: 0000, modifier: 0
  718. 17:11:19 T:848   DEBUG: CApplication::OnKey: down (f081) pressed, action is Down
  719. 17:11:19 T:240   DEBUG: CTextureCache::GetImageHash - unable to stat url X:\EXT06\Movies\Fast Times at Ridgemont High\logo.png
  720. 17:11:19 T:848   DEBUG: SDLKeyboard: scancode: 50, sym: 0112, unicode: 0000, modifier: 0
  721. 17:11:19 T:848   DEBUG: CApplication::OnKey: down (f081) pressed, action is Down
  722. 17:11:19 T:1800   DEBUG: Caching image 'videodb://1/7/8/logo.png' as '9/91bebd85.png' full size
  723. 17:11:19 T:1800    INFO: Caching image from: videodb://1/7/8/logo.png to special://masterprofile/Thumbnails/9/91bebd85.png
  724. 17:11:19 T:848   DEBUG: SDLKeyboard: scancode: 50, sym: 0112, unicode: 0000, modifier: 0
  725. 17:11:19 T:848   DEBUG: CApplication::OnKey: down (f081) pressed, action is Down
  726. 17:11:19 T:1844   DEBUG: CTextureCache::GetImageHash - unable to stat url X:\EXT06\Movies\Full Metal Jacket\logo.png
  727. 17:11:19 T:848   DEBUG: SDLKeyboard: scancode: 50, sym: 0112, unicode: 0000, modifier: 0
  728. 17:11:19 T:848   DEBUG: CApplication::OnKey: down (f081) pressed, action is Down
  729. 17:11:19 T:240   DEBUG: CTextureCache::GetImageHash - unable to stat url X:\EXT06\Movies\Galaxy Quest\logo.png
  730. 17:11:19 T:848   DEBUG: SDLKeyboard: scancode: 2e, sym: 0063, unicode: 0063, modifier: 0
  731. 17:11:19 T:848   DEBUG: CApplication::OnKey: c (f043) pressed, action is ContextMenu
  732. 17:11:19 T:848   DEBUG: CPlayerCoreFactory::GetPlayers(X:\EXT06\Movies\Galaxy Quest\Galaxy.Quest-FLAWL3SS.avi)
  733. 17:11:19 T:848   DEBUG: CPlayerSelectionRule::GetPlayers: considering rule: system rules
  734. 17:11:19 T:848   DEBUG: CPlayerSelectionRule::GetPlayers: matches rule: system rules
  735. 17:11:19 T:848   DEBUG: CPlayerSelectionRule::GetPlayers: considering rule: rtv
  736. 17:11:19 T:848   DEBUG: CPlayerSelectionRule::GetPlayers: considering rule: hdhomerun/myth/rtmp/mms/udp
  737. 17:11:19 T:848   DEBUG: CPlayerSelectionRule::GetPlayers: considering rule: lastfm/shout
  738. 17:11:19 T:848   DEBUG: CPlayerSelectionRule::GetPlayers: considering rule: rtsp
  739. 17:11:19 T:848   DEBUG: CPlayerSelectionRule::GetPlayers: considering rule: streams
  740. 17:11:19 T:848   DEBUG: CPlayerSelectionRule::GetPlayers: considering rule: dvd
  741. 17:11:19 T:848   DEBUG: CPlayerSelectionRule::GetPlayers: considering rule: dvdfile
  742. 17:11:19 T:848   DEBUG: CPlayerSelectionRule::GetPlayers: considering rule: dvdimage
  743. 17:11:19 T:848   DEBUG: CPlayerSelectionRule::GetPlayers: considering rule: sdp/asf
  744. 17:11:19 T:848   DEBUG: CPlayerSelectionRule::GetPlayers: considering rule: nsv
  745. 17:11:19 T:848   DEBUG: CPlayerCoreFactory::GetPlayers: matched 0 rules with players
  746. 17:11:19 T:848   DEBUG: CPlayerCoreFactory::GetPlayers: adding videodefaultplayer (1)
  747. 17:11:19 T:848   DEBUG: CPlayerCoreFactory::GetPlayers: for video=1, audio=0
  748. 17:11:19 T:848   DEBUG: CPlayerCoreFactory::GetPlayers: for video=1, audio=1
  749. 17:11:19 T:848   DEBUG: CPlayerCoreFactory::GetPlayers: adding player: DVDPlayer (1)
  750. 17:11:19 T:848   DEBUG: CPlayerCoreFactory::GetPlayers: added 1 players
  751. 17:11:19 T:848   DEBUG: CFavourites::Load - no system favourites found, skipping
  752. 17:11:19 T:848    INFO: Loading skin file: DialogContextMenu.xml
  753. 17:11:19 T:848   DEBUG: ------ Window Init (DialogContextMenu.xml) ------
  754. 17:11:20 T:848   DEBUG: SDLKeyboard: scancode: 2e, sym: 0063, unicode: 0063, modifier: 0
  755. 17:11:20 T:848   DEBUG: CApplication::OnKey: c (f043) pressed, action is Back
  756. 17:11:20 T:848   DEBUG: ------ Window Deinit (DialogContextMenu.xml) ------
  757. 17:11:21 T:848   DEBUG: SDLKeyboard: scancode: 2e, sym: 0063, unicode: 0063, modifier: 0
  758. 17:11:21 T:848   DEBUG: CApplication::OnKey: c (f043) pressed, action is ContextMenu
  759. 17:11:21 T:848   DEBUG: CPlayerCoreFactory::GetPlayers(X:\EXT06\Movies\Galaxy Quest\Galaxy.Quest-FLAWL3SS.avi)
  760. 17:11:21 T:848   DEBUG: CPlayerSelectionRule::GetPlayers: considering rule: system rules
  761. 17:11:21 T:848   DEBUG: CPlayerSelectionRule::GetPlayers: matches rule: system rules
  762. 17:11:21 T:848   DEBUG: CPlayerSelectionRule::GetPlayers: considering rule: rtv
  763. 17:11:21 T:848   DEBUG: CPlayerSelectionRule::GetPlayers: considering rule: hdhomerun/myth/rtmp/mms/udp
  764. 17:11:21 T:848   DEBUG: CPlayerSelectionRule::GetPlayers: considering rule: lastfm/shout
  765. 17:11:21 T:848   DEBUG: CPlayerSelectionRule::GetPlayers: considering rule: rtsp
  766. 17:11:21 T:848   DEBUG: CPlayerSelectionRule::GetPlayers: considering rule: streams
  767. 17:11:21 T:848   DEBUG: CPlayerSelectionRule::GetPlayers: considering rule: dvd
  768. 17:11:21 T:848   DEBUG: CPlayerSelectionRule::GetPlayers: considering rule: dvdfile
  769. 17:11:21 T:848   DEBUG: CPlayerSelectionRule::GetPlayers: considering rule: dvdimage
  770. 17:11:21 T:848   DEBUG: CPlayerSelectionRule::GetPlayers: considering rule: sdp/asf
  771. 17:11:21 T:848   DEBUG: CPlayerSelectionRule::GetPlayers: considering rule: nsv
  772. 17:11:21 T:848   DEBUG: CPlayerCoreFactory::GetPlayers: matched 0 rules with players
  773. 17:11:21 T:848   DEBUG: CPlayerCoreFactory::GetPlayers: adding videodefaultplayer (1)
  774. 17:11:21 T:848   DEBUG: CPlayerCoreFactory::GetPlayers: for video=1, audio=0
  775. 17:11:21 T:848   DEBUG: CPlayerCoreFactory::GetPlayers: for video=1, audio=1
  776. 17:11:21 T:848   DEBUG: CPlayerCoreFactory::GetPlayers: adding player: DVDPlayer (1)
  777. 17:11:21 T:848   DEBUG: CPlayerCoreFactory::GetPlayers: added 1 players
  778. 17:11:21 T:848   DEBUG: CFavourites::Load - no system favourites found, skipping
  779. 17:11:21 T:848    INFO: Loading skin file: DialogContextMenu.xml
  780. 17:11:21 T:848   DEBUG: ------ Window Init (DialogContextMenu.xml) ------
  781. 17:11:21 T:848   DEBUG: SDLKeyboard: scancode: 2e, sym: 0063, unicode: 0063, modifier: 0
  782. 17:11:21 T:848   DEBUG: CApplication::OnKey: c (f043) pressed, action is Back
  783. 17:11:22 T:848   DEBUG: ------ Window Deinit (DialogContextMenu.xml) ------
  784. 17:11:22 T:848   DEBUG: SDLKeyboard: scancode: 2e, sym: 0063, unicode: 0063, modifier: 0
  785. 17:11:22 T:848   DEBUG: CApplication::OnKey: c (f043) pressed, action is ContextMenu
  786. 17:11:22 T:848   DEBUG: CPlayerCoreFactory::GetPlayers(X:\EXT06\Movies\Galaxy Quest\Galaxy.Quest-FLAWL3SS.avi)
  787. 17:11:22 T:848   DEBUG: CPlayerSelectionRule::GetPlayers: considering rule: system rules
  788. 17:11:22 T:848   DEBUG: CPlayerSelectionRule::GetPlayers: matches rule: system rules
  789. 17:11:22 T:848   DEBUG: CPlayerSelectionRule::GetPlayers: considering rule: rtv
  790. 17:11:22 T:848   DEBUG: CPlayerSelectionRule::GetPlayers: considering rule: hdhomerun/myth/rtmp/mms/udp
  791. 17:11:22 T:848   DEBUG: CPlayerSelectionRule::GetPlayers: considering rule: lastfm/shout
  792. 17:11:22 T:848   DEBUG: CPlayerSelectionRule::GetPlayers: considering rule: rtsp
  793. 17:11:22 T:848   DEBUG: CPlayerSelectionRule::GetPlayers: considering rule: streams
  794. 17:11:22 T:848   DEBUG: CPlayerSelectionRule::GetPlayers: considering rule: dvd
  795. 17:11:22 T:848   DEBUG: CPlayerSelectionRule::GetPlayers: considering rule: dvdfile
  796. 17:11:22 T:848   DEBUG: CPlayerSelectionRule::GetPlayers: considering rule: dvdimage
  797. 17:11:22 T:848   DEBUG: CPlayerSelectionRule::GetPlayers: considering rule: sdp/asf
  798. 17:11:22 T:848   DEBUG: CPlayerSelectionRule::GetPlayers: considering rule: nsv
  799. 17:11:22 T:848   DEBUG: CPlayerCoreFactory::GetPlayers: matched 0 rules with players
  800. 17:11:22 T:848   DEBUG: CPlayerCoreFactory::GetPlayers: adding videodefaultplayer (1)
  801. 17:11:22 T:848   DEBUG: CPlayerCoreFactory::GetPlayers: for video=1, audio=0
  802. 17:11:22 T:848   DEBUG: CPlayerCoreFactory::GetPlayers: for video=1, audio=1
  803. 17:11:22 T:848   DEBUG: CPlayerCoreFactory::GetPlayers: adding player: DVDPlayer (1)
  804. 17:11:22 T:848   DEBUG: CPlayerCoreFactory::GetPlayers: added 1 players
  805. 17:11:22 T:848   DEBUG: CFavourites::Load - no system favourites found, skipping
  806. 17:11:22 T:848    INFO: Loading skin file: DialogContextMenu.xml
  807. 17:11:22 T:848   DEBUG: ------ Window Init (DialogContextMenu.xml) ------
  808. 17:11:22 T:848   DEBUG: SDLKeyboard: scancode: 2e, sym: 0063, unicode: 0063, modifier: 0
  809. 17:11:22 T:848   DEBUG: CApplication::OnKey: c (f043) pressed, action is Back
  810. 17:11:23 T:848   DEBUG: ------ Window Deinit (DialogContextMenu.xml) ------
  811. 17:11:23 T:848   DEBUG: SDLKeyboard: scancode: 17, sym: 0069, unicode: 0069, modifier: 0
  812. 17:11:23 T:848   DEBUG: CApplication::OnKey: i (f049) pressed, action is Info
  813. 17:11:23 T:848   DEBUG: CVideoDatabase::GetMovieId (X:\EXT06\Movies\Galaxy Quest\Galaxy.Quest-FLAWL3SS.avi), query = select idMovie from movie where idFile=472
  814. 17:11:23 T:848   DEBUG: ------ Window Init (DialogVideoInfo.xml) ------
  815. 17:11:23 T:848    INFO: Loading skin file: DialogVideoInfo.xml
  816. 17:11:24 T:848   DEBUG: SDLKeyboard: scancode: 17, sym: 0069, unicode: 0069, modifier: 0
  817. 17:11:24 T:848   DEBUG: CApplication::OnKey: i (f049) pressed, action is Back
  818. 17:11:24 T:848   DEBUG: ------ Window Deinit (DialogVideoInfo.xml) ------
  819. 17:11:25 T:848   DEBUG: SDLKeyboard: scancode: 17, sym: 0069, unicode: 0069, modifier: 0
  820. 17:11:25 T:848   DEBUG: CApplication::OnKey: i (f049) pressed, action is Info
  821. 17:11:25 T:848   DEBUG: CVideoDatabase::GetMovieId (X:\EXT06\Movies\Galaxy Quest\Galaxy.Quest-FLAWL3SS.avi), query = select idMovie from movie where idFile=472
  822. 17:11:25 T:848   DEBUG: ------ Window Init (DialogVideoInfo.xml) ------
  823. 17:11:25 T:848    INFO: Loading skin file: DialogVideoInfo.xml
  824. 17:11:25 T:848   DEBUG: SDLKeyboard: scancode: 17, sym: 0069, unicode: 0069, modifier: 0
  825. 17:11:25 T:848   DEBUG: CApplication::OnKey: i (f049) pressed, action is Back
  826. 17:11:26 T:848   DEBUG: ------ Window Deinit (DialogVideoInfo.xml) ------
  827. 17:11:26 T:848   DEBUG: SDLKeyboard: scancode: 2e, sym: 0063, unicode: 0063, modifier: 0
  828. 17:11:26 T:848   DEBUG: CApplication::OnKey: c (f043) pressed, action is ContextMenu
  829. 17:11:26 T:848   DEBUG: CPlayerCoreFactory::GetPlayers(X:\EXT06\Movies\Galaxy Quest\Galaxy.Quest-FLAWL3SS.avi)
  830. 17:11:26 T:848   DEBUG: CPlayerSelectionRule::GetPlayers: considering rule: system rules
  831. 17:11:26 T:848   DEBUG: CPlayerSelectionRule::GetPlayers: matches rule: system rules
  832. 17:11:26 T:848   DEBUG: CPlayerSelectionRule::GetPlayers: considering rule: rtv
  833. 17:11:26 T:848   DEBUG: CPlayerSelectionRule::GetPlayers: considering rule: hdhomerun/myth/rtmp/mms/udp
  834. 17:11:26 T:848   DEBUG: CPlayerSelectionRule::GetPlayers: considering rule: lastfm/shout
  835. 17:11:26 T:848   DEBUG: CPlayerSelectionRule::GetPlayers: considering rule: rtsp
  836. 17:11:26 T:848   DEBUG: CPlayerSelectionRule::GetPlayers: considering rule: streams
  837. 17:11:26 T:848   DEBUG: CPlayerSelectionRule::GetPlayers: considering rule: dvd
  838. 17:11:26 T:848   DEBUG: CPlayerSelectionRule::GetPlayers: considering rule: dvdfile
  839. 17:11:26 T:848   DEBUG: CPlayerSelectionRule::GetPlayers: considering rule: dvdimage
  840. 17:11:26 T:848   DEBUG: CPlayerSelectionRule::GetPlayers: considering rule: sdp/asf
  841. 17:11:26 T:848   DEBUG: CPlayerSelectionRule::GetPlayers: considering rule: nsv
  842. 17:11:26 T:848   DEBUG: CPlayerCoreFactory::GetPlayers: matched 0 rules with players
  843. 17:11:26 T:848   DEBUG: CPlayerCoreFactory::GetPlayers: adding videodefaultplayer (1)
  844. 17:11:26 T:848   DEBUG: CPlayerCoreFactory::GetPlayers: for video=1, audio=0
  845. 17:11:26 T:848   DEBUG: CPlayerCoreFactory::GetPlayers: for video=1, audio=1
  846. 17:11:26 T:848   DEBUG: CPlayerCoreFactory::GetPlayers: adding player: DVDPlayer (1)
  847. 17:11:26 T:848   DEBUG: CPlayerCoreFactory::GetPlayers: added 1 players
  848. 17:11:26 T:848   DEBUG: CFavourites::Load - no system favourites found, skipping
  849. 17:11:26 T:848    INFO: Loading skin file: DialogContextMenu.xml
  850. 17:11:26 T:848   DEBUG: ------ Window Init (DialogContextMenu.xml) ------
  851. 17:11:26 T:848   DEBUG: SDLKeyboard: scancode: 2e, sym: 0063, unicode: 0063, modifier: 0
  852. 17:11:26 T:848   DEBUG: CApplication::OnKey: c (f043) pressed, action is Back
  853. 17:11:26 T:848   DEBUG: ------ Window Deinit (DialogContextMenu.xml) ------
  854. 17:11:27 T:848   DEBUG: SDLKeyboard: scancode: 2e, sym: 0063, unicode: 0063, modifier: 0
  855. 17:11:27 T:848   DEBUG: CApplication::OnKey: c (f043) pressed, action is ContextMenu
  856. 17:11:27 T:848   DEBUG: CPlayerCoreFactory::GetPlayers(X:\EXT06\Movies\Galaxy Quest\Galaxy.Quest-FLAWL3SS.avi)
  857. 17:11:27 T:848   DEBUG: CPlayerSelectionRule::GetPlayers: considering rule: system rules
  858. 17:11:27 T:848   DEBUG: CPlayerSelectionRule::GetPlayers: matches rule: system rules
  859. 17:11:27 T:848   DEBUG: CPlayerSelectionRule::GetPlayers: considering rule: rtv
  860. 17:11:27 T:848   DEBUG: CPlayerSelectionRule::GetPlayers: considering rule: hdhomerun/myth/rtmp/mms/udp
  861. 17:11:27 T:848   DEBUG: CPlayerSelectionRule::GetPlayers: considering rule: lastfm/shout
  862. 17:11:27 T:848   DEBUG: CPlayerSelectionRule::GetPlayers: considering rule: rtsp
  863. 17:11:27 T:848   DEBUG: CPlayerSelectionRule::GetPlayers: considering rule: streams
  864. 17:11:27 T:848   DEBUG: CPlayerSelectionRule::GetPlayers: considering rule: dvd
  865. 17:11:27 T:848   DEBUG: CPlayerSelectionRule::GetPlayers: considering rule: dvdfile
  866. 17:11:27 T:848   DEBUG: CPlayerSelectionRule::GetPlayers: considering rule: dvdimage
  867. 17:11:27 T:848   DEBUG: CPlayerSelectionRule::GetPlayers: considering rule: sdp/asf
  868. 17:11:27 T:848   DEBUG: CPlayerSelectionRule::GetPlayers: considering rule: nsv
  869. 17:11:27 T:848   DEBUG: CPlayerCoreFactory::GetPlayers: matched 0 rules with players
  870. 17:11:27 T:848   DEBUG: CPlayerCoreFactory::GetPlayers: adding videodefaultplayer (1)
  871. 17:11:27 T:848   DEBUG: CPlayerCoreFactory::GetPlayers: for video=1, audio=0
  872. 17:11:27 T:848   DEBUG: CPlayerCoreFactory::GetPlayers: for video=1, audio=1
  873. 17:11:27 T:848   DEBUG: CPlayerCoreFactory::GetPlayers: adding player: DVDPlayer (1)
  874. 17:11:27 T:848   DEBUG: CPlayerCoreFactory::GetPlayers: added 1 players
  875. 17:11:27 T:848   DEBUG: CFavourites::Load - no system favourites found, skipping
  876. 17:11:27 T:848    INFO: Loading skin file: DialogContextMenu.xml
  877. 17:11:27 T:848   DEBUG: ------ Window Init (DialogContextMenu.xml) ------
  878. 17:11:27 T:848   DEBUG: SDLKeyboard: scancode: 2e, sym: 0063, unicode: 0063, modifier: 0
  879. 17:11:27 T:848   DEBUG: CApplication::OnKey: c (f043) pressed, action is Back
  880. 17:11:27 T:848   DEBUG: ------ Window Deinit (DialogContextMenu.xml) ------
  881. 17:11:28 T:848   DEBUG: SDLKeyboard: scancode: 50, sym: 0112, unicode: 0000, modifier: 0
  882. 17:11:28 T:848   DEBUG: CApplication::OnKey: down (f081) pressed, action is Down
  883. 17:11:28 T:1844   DEBUG: CTextureCache::GetImageHash - unable to stat url X:\EXT06\Movies\Ghostbusters 1\logo.png
  884. 17:11:28 T:848   DEBUG: SDLKeyboard: scancode: 2e, sym: 0063, unicode: 0063, modifier: 0
  885. 17:11:28 T:848   DEBUG: CApplication::OnKey: c (f043) pressed, action is ContextMenu
  886. 17:11:28 T:848   DEBUG: CPlayerCoreFactory::GetPlayers(X:\EXT06\Movies\Ghostbusters 1\Ghostbusters 1.avi)
  887. 17:11:28 T:848   DEBUG: CPlayerSelectionRule::GetPlayers: considering rule: system rules
  888. 17:11:28 T:848   DEBUG: CPlayerSelectionRule::GetPlayers: matches rule: system rules
  889. 17:11:28 T:848   DEBUG: CPlayerSelectionRule::GetPlayers: considering rule: rtv
  890. 17:11:28 T:848   DEBUG: CPlayerSelectionRule::GetPlayers: considering rule: hdhomerun/myth/rtmp/mms/udp
  891. 17:11:28 T:848   DEBUG: CPlayerSelectionRule::GetPlayers: considering rule: lastfm/shout
  892. 17:11:28 T:848   DEBUG: CPlayerSelectionRule::GetPlayers: considering rule: rtsp
  893. 17:11:28 T:848   DEBUG: CPlayerSelectionRule::GetPlayers: considering rule: streams
  894. 17:11:28 T:848   DEBUG: CPlayerSelectionRule::GetPlayers: considering rule: dvd
  895. 17:11:28 T:848   DEBUG: CPlayerSelectionRule::GetPlayers: considering rule: dvdfile
  896. 17:11:28 T:848   DEBUG: CPlayerSelectionRule::GetPlayers: considering rule: dvdimage
  897. 17:11:28 T:848   DEBUG: CPlayerSelectionRule::GetPlayers: considering rule: sdp/asf
  898. 17:11:28 T:848   DEBUG: CPlayerSelectionRule::GetPlayers: considering rule: nsv
  899. 17:11:28 T:848   DEBUG: CPlayerCoreFactory::GetPlayers: matched 0 rules with players
  900. 17:11:28 T:848   DEBUG: CPlayerCoreFactory::GetPlayers: adding videodefaultplayer (1)
  901. 17:11:28 T:848   DEBUG: CPlayerCoreFactory::GetPlayers: for video=1, audio=0
  902. 17:11:28 T:848   DEBUG: CPlayerCoreFactory::GetPlayers: for video=1, audio=1
  903. 17:11:28 T:848   DEBUG: CPlayerCoreFactory::GetPlayers: adding player: DVDPlayer (1)
  904. 17:11:28 T:848   DEBUG: CPlayerCoreFactory::GetPlayers: added 1 players
  905. 17:11:28 T:848   DEBUG: CFavourites::Load - no system favourites found, skipping
  906. 17:11:28 T:848    INFO: Loading skin file: DialogContextMenu.xml
  907. 17:11:28 T:848   DEBUG: ------ Window Init (DialogContextMenu.xml) ------
  908. 17:11:29 T:1844   DEBUG: CImageLoader::DoWork - took 417 ms to load special://masterprofile/Thumbnails/Video/b/b2362b7b.tbn
  909. 17:11:29 T:240   DEBUG: CImageLoader::DoWork - took 426 ms to load special://masterprofile/Thumbnails/Video/Fanart/b2362b7b.tbn
  910. 17:11:29 T:848   DEBUG: SDLKeyboard: scancode: 2e, sym: 0063, unicode: 0063, modifier: 0
  911. 17:11:29 T:848   DEBUG: CApplication::OnKey: c (f043) pressed, action is Back
  912. 17:11:29 T:848   DEBUG: ------ Window Deinit (DialogContextMenu.xml) ------
  913. 17:11:30 T:848   DEBUG: SDLKeyboard: scancode: 50, sym: 0112, unicode: 0000, modifier: 0
  914. 17:11:30 T:848   DEBUG: CApplication::OnKey: down (f081) pressed, action is Down
  915. 17:11:30 T:1800   DEBUG: CTextureCache::GetImageHash - unable to stat url X:\EXT06\Movies\Ghostbusters 2\logo.png
  916. 17:11:30 T:848   DEBUG: SDLKeyboard: scancode: 2e, sym: 0063, unicode: 0063, modifier: 0
  917. 17:11:30 T:848   DEBUG: CApplication::OnKey: c (f043) pressed, action is ContextMenu
  918. 17:11:30 T:848   DEBUG: CPlayerCoreFactory::GetPlayers(X:\EXT06\Movies\Ghostbusters 2\Ghostbusters 2.avi)
  919. 17:11:30 T:848   DEBUG: CPlayerSelectionRule::GetPlayers: considering rule: system rules
  920. 17:11:30 T:848   DEBUG: CPlayerSelectionRule::GetPlayers: matches rule: system rules
  921. 17:11:30 T:848   DEBUG: CPlayerSelectionRule::GetPlayers: considering rule: rtv
  922. 17:11:30 T:848   DEBUG: CPlayerSelectionRule::GetPlayers: considering rule: hdhomerun/myth/rtmp/mms/udp
  923. 17:11:30 T:848   DEBUG: CPlayerSelectionRule::GetPlayers: considering rule: lastfm/shout
  924. 17:11:30 T:848   DEBUG: CPlayerSelectionRule::GetPlayers: considering rule: rtsp
  925. 17:11:30 T:848   DEBUG: CPlayerSelectionRule::GetPlayers: considering rule: streams
  926. 17:11:30 T:848   DEBUG: CPlayerSelectionRule::GetPlayers: considering rule: dvd
  927. 17:11:30 T:848   DEBUG: CPlayerSelectionRule::GetPlayers: considering rule: dvdfile
  928. 17:11:30 T:848   DEBUG: CPlayerSelectionRule::GetPlayers: considering rule: dvdimage
  929. 17:11:30 T:848   DEBUG: CPlayerSelectionRule::GetPlayers: considering rule: sdp/asf
  930. 17:11:30 T:848   DEBUG: CPlayerSelectionRule::GetPlayers: considering rule: nsv
  931. 17:11:30 T:848   DEBUG: CPlayerCoreFactory::GetPlayers: matched 0 rules with players
  932. 17:11:30 T:848   DEBUG: CPlayerCoreFactory::GetPlayers: adding videodefaultplayer (1)
  933. 17:11:30 T:848   DEBUG: CPlayerCoreFactory::GetPlayers: for video=1, audio=0
  934. 17:11:30 T:848   DEBUG: CPlayerCoreFactory::GetPlayers: for video=1, audio=1
  935. 17:11:30 T:848   DEBUG: CPlayerCoreFactory::GetPlayers: adding player: DVDPlayer (1)
  936. 17:11:30 T:848   DEBUG: CPlayerCoreFactory::GetPlayers: added 1 players
  937. 17:11:30 T:848   DEBUG: CFavourites::Load - no system favourites found, skipping
  938. 17:11:30 T:848    INFO: Loading skin file: DialogContextMenu.xml
  939. 17:11:30 T:848   DEBUG: ------ Window Init (DialogContextMenu.xml) ------
  940. 17:11:31 T:848   DEBUG: SDLKeyboard: scancode: 2e, sym: 0063, unicode: 0063, modifier: 0
  941. 17:11:31 T:848   DEBUG: CApplication::OnKey: c (f043) pressed, action is Back
  942. 17:11:31 T:848   DEBUG: ------ Window Deinit (DialogContextMenu.xml) ------
  943. 17:11:31 T:848   DEBUG: SDLKeyboard: scancode: 01, sym: 001b, unicode: 001b, modifier: 0
  944. 17:11:31 T:848   DEBUG: CApplication::OnKey: escape (f01b) pressed, action is PreviousMenu
  945. 17:11:31 T:848   DEBUG: CGUIWindowManager::PreviousWindow: Deactivate
  946. 17:11:32 T:848   DEBUG: ------ Window Deinit (MyVideoNav.xml) ------
  947. 17:11:32 T:848   DEBUG: CGUIWindowManager::PreviousWindow: Activate new
  948. 17:11:32 T:848   DEBUG: ------ Window Init (Home.xml) ------
  949. 17:11:32 T:848    INFO: Loading skin file: Home.xml
  950. 17:11:32 T:848   DEBUG: CApplication::ExecuteXBMCAction : Translating ClearProperty(DontRunTVShowScripts,Home)
  951. 17:11:32 T:848   DEBUG: CApplication::ExecuteXBMCAction : To ClearProperty(DontRunTVShowScripts,Home)
  952. 17:11:33 T:848   DEBUG: SDLKeyboard: scancode: 4d, sym: 0113, unicode: 0000, modifier: 0
  953. 17:11:33 T:848   DEBUG: CApplication::OnKey: right (f083) pressed, action is Right
  954. 17:11:33 T:848   DEBUG: SDLKeyboard: scancode: 4d, sym: 0113, unicode: 0000, modifier: 0
  955. 17:11:33 T:848   DEBUG: CApplication::OnKey: right (f083) pressed, action is Right
  956. 17:11:33 T:848   DEBUG: SDLKeyboard: scancode: 4d, sym: 0113, unicode: 0000, modifier: 0
  957. 17:11:33 T:848   DEBUG: CApplication::OnKey: right (f083) pressed, action is Right
  958. 17:11:35 T:848   DEBUG: SDLKeyboard: scancode: 4d, sym: 0113, unicode: 0000, modifier: 0
  959. 17:11:35 T:848   DEBUG: CApplication::OnKey: right (f083) pressed, action is Right
  960. 17:11:36 T:848   DEBUG: SDLKeyboard: scancode: 4d, sym: 0113, unicode: 0000, modifier: 0
  961. 17:11:36 T:848   DEBUG: CApplication::OnKey: right (f083) pressed, action is Right
  962. 17:11:36 T:240   DEBUG: CImageLoader::DoWork - took 120 ms to load special://masterprofile/Thumbnails/a/a8d53fe9.jpg
  963. 17:11:36 T:848   DEBUG: SDLKeyboard: scancode: 4d, sym: 0113, unicode: 0000, modifier: 0
  964. 17:11:36 T:848   DEBUG: CApplication::OnKey: right (f083) pressed, action is Right
  965. 17:11:36 T:848   DEBUG: SDLKeyboard: scancode: 4d, sym: 0113, unicode: 0000, modifier: 0
  966. 17:11:36 T:848   DEBUG: CApplication::OnKey: right (f083) pressed, action is Right
  967. 17:11:41 T:848   DEBUG: SDLKeyboard: scancode: 4d, sym: 0113, unicode: 0000, modifier: 0
  968. 17:11:41 T:848   DEBUG: CApplication::OnKey: right (f083) pressed, action is Right
  969. 17:11:45 T:848   DEBUG: SDLKeyboard: scancode: 4b, sym: 0114, unicode: 0000, modifier: 0
  970. 17:11:45 T:848   DEBUG: CApplication::OnKey: left (f082) pressed, action is Left
  971. 17:11:47 T:848   DEBUG: SDLKeyboard: scancode: 1c, sym: 000d, unicode: 000d, modifier: 0
  972. 17:11:47 T:848   DEBUG: CApplication::OnKey: return (f00d) pressed, action is Select
  973. 17:11:47 T:848   DEBUG: CApplication::ExecuteXBMCAction : Translating ActivateWindow(Weather)
  974. 17:11:47 T:848   DEBUG: CApplication::ExecuteXBMCAction : To ActivateWindow(Weather)
  975. 17:11:47 T:848   DEBUG: Activating window ID: 12600
  976. 17:11:47 T:848   DEBUG: ------ Window Deinit (Home.xml) ------
  977. 17:11:47 T:848   DEBUG: CApplication::ExecuteXBMCAction : Translating CancelAlarm(WidgetMove,true)
  978. 17:11:47 T:848   DEBUG: CApplication::ExecuteXBMCAction : To CancelAlarm(WidgetMove,true)
  979. 17:11:47 T:848   DEBUG: CApplication::ExecuteXBMCAction : Translating CancelAlarm(WidgetMoveTwo,true)
  980. 17:11:47 T:848   DEBUG: CApplication::ExecuteXBMCAction : To CancelAlarm(WidgetMoveTwo,true)
  981. 17:11:47 T:848   DEBUG: ------ Window Init (MyWeather.xml) ------
  982. 17:11:47 T:848    INFO: Loading skin file: MyWeather.xml
  983. 17:11:47 T:240   DEBUG: Caching image 'C:\Cage\XBMC Addons\Weather Backs\45\scattered_showers_night4.jpg' as '4/41df2818.jpg' full size
  984. 17:11:47 T:240    INFO: Caching image from: C:\Cage\XBMC Addons\Weather Backs\45\scattered_showers_night4.jpg to special://masterprofile/Thumbnails/4/41df2818.jpg
  985. 17:11:51 T:848   DEBUG: SDLKeyboard: scancode: 4b, sym: 0114, unicode: 0000, modifier: 0
  986. 17:11:51 T:848   DEBUG: CApplication::OnKey: left (f082) pressed, action is Left
  987. 17:11:51 T:848   DEBUG: SDLKeyboard: scancode: 4b, sym: 0114, unicode: 0000, modifier: 0
  988. 17:11:51 T:848   DEBUG: CApplication::OnKey: left (f082) pressed, action is Left
  989. 17:11:52 T:848   DEBUG: SDLKeyboard: scancode: 4b, sym: 0114, unicode: 0000, modifier: 0
  990. 17:11:52 T:848   DEBUG: CApplication::OnKey: left (f082) pressed, action is Left
  991. 17:11:53 T:848   DEBUG: SDLKeyboard: scancode: 50, sym: 0112, unicode: 0000, modifier: 0
  992. 17:11:53 T:848   DEBUG: CApplication::OnKey: down (f081) pressed, action is Down
  993. 17:11:54 T:848   DEBUG: SDLKeyboard: scancode: 50, sym: 0112, unicode: 0000, modifier: 0
  994. 17:11:54 T:848   DEBUG: CApplication::OnKey: down (f081) pressed, action is Down
  995. 17:11:54 T:848   DEBUG: SDLKeyboard: scancode: 50, sym: 0112, unicode: 0000, modifier: 0
  996. 17:11:54 T:848   DEBUG: CApplication::OnKey: down (f081) pressed, action is Down
  997. 17:11:54 T:848   DEBUG: SDLKeyboard: scancode: 50, sym: 0112, unicode: 0000, modifier: 0
  998. 17:11:54 T:848   DEBUG: CApplication::OnKey: down (f081) pressed, action is Down
  999. 17:11:54 T:848   DEBUG: SDLKeyboard: scancode: 48, sym: 0111, unicode: 0000, modifier: 0
  1000. 17:11:54 T:848   DEBUG: CApplication::OnKey: up (f080) pressed, action is Up
  1001. 17:11:55 T:848   DEBUG: SDLKeyboard: scancode: 1c, sym: 000d, unicode: 000d, modifier: 0
  1002. 17:11:55 T:848   DEBUG: CApplication::OnKey: return (f00d) pressed, action is Select
  1003. 17:11:55 T:848   DEBUG: CApplication::ExecuteXBMCAction : Translating Skin.ToggleSetting(ShowWeatherFanart)
  1004. 17:11:55 T:848   DEBUG: CApplication::ExecuteXBMCAction : To Skin.ToggleSetting(ShowWeatherFanart)
  1005. 17:11:57 T:848   DEBUG: SDLKeyboard: scancode: 1c, sym: 000d, unicode: 000d, modifier: 0
  1006. 17:11:57 T:848   DEBUG: CApplication::OnKey: return (f00d) pressed, action is Select
  1007. 17:11:57 T:848   DEBUG: CApplication::ExecuteXBMCAction : Translating Skin.ToggleSetting(ShowWeatherFanart)
  1008. 17:11:57 T:848   DEBUG: CApplication::ExecuteXBMCAction : To Skin.ToggleSetting(ShowWeatherFanart)
  1009. 17:11:58 T:848   DEBUG: SDLKeyboard: scancode: 1c, sym: 000d, unicode: 000d, modifier: 0
  1010. 17:11:58 T:848   DEBUG: CApplication::OnKey: return (f00d) pressed, action is Select
  1011. 17:11:58 T:848   DEBUG: CApplication::ExecuteXBMCAction : Translating Skin.ToggleSetting(ShowWeatherFanart)
  1012. 17:11:58 T:848   DEBUG: CApplication::ExecuteXBMCAction : To Skin.ToggleSetting(ShowWeatherFanart)
  1013. 17:11:59 T:848   DEBUG: SDLKeyboard: scancode: 1c, sym: 000d, unicode: 000d, modifier: 0
  1014. 17:11:59 T:848   DEBUG: CApplication::OnKey: return (f00d) pressed, action is Select
  1015. 17:11:59 T:848   DEBUG: CApplication::ExecuteXBMCAction : Translating Skin.ToggleSetting(ShowWeatherFanart)
  1016. 17:11:59 T:848   DEBUG: CApplication::ExecuteXBMCAction : To Skin.ToggleSetting(ShowWeatherFanart)
  1017. 17:12:02 T:848   DEBUG: SDLKeyboard: scancode: 50, sym: 0112, unicode: 0000, modifier: 0
  1018. 17:12:02 T:848   DEBUG: CApplication::OnKey: down (f081) pressed, action is Down
  1019. 17:12:02 T:848   DEBUG: SDLKeyboard: scancode: 50, sym: 0112, unicode: 0000, modifier: 0
  1020. 17:12:02 T:848   DEBUG: CApplication::OnKey: down (f081) pressed, action is Down
  1021. 17:12:03 T:848   DEBUG: SDLKeyboard: scancode: 1c, sym: 000d, unicode: 000d, modifier: 0
  1022. 17:12:03 T:848   DEBUG: CApplication::OnKey: return (f00d) pressed, action is Select
  1023. 17:12:03 T:848   DEBUG: CApplication::ExecuteXBMCAction : Translating Skin.ToggleSetting(AnimatedWeatherIcons)
  1024. 17:12:03 T:848   DEBUG: CApplication::ExecuteXBMCAction : To Skin.ToggleSetting(AnimatedWeatherIcons)
  1025. 17:12:05 T:848   DEBUG: SDLKeyboard: scancode: 1c, sym: 000d, unicode: 000d, modifier: 0
  1026. 17:12:05 T:848   DEBUG: CApplication::OnKey: return (f00d) pressed, action is Select
  1027. 17:12:05 T:848   DEBUG: CApplication::ExecuteXBMCAction : Translating Skin.ToggleSetting(AnimatedWeatherIcons)
  1028. 17:12:05 T:848   DEBUG: CApplication::ExecuteXBMCAction : To Skin.ToggleSetting(AnimatedWeatherIcons)
  1029. 17:12:06 T:848   DEBUG: SDLKeyboard: scancode: 01, sym: 001b, unicode: 001b, modifier: 0
  1030. 17:12:06 T:848   DEBUG: CApplication::OnKey: escape (f01b) pressed, action is PreviousMenu
  1031. 17:12:06 T:848   DEBUG: CGUIWindowManager::PreviousWindow: Deactivate
  1032. 17:12:06 T:848   DEBUG: ------ Window Deinit (MyWeather.xml) ------
  1033. 17:12:06 T:848   DEBUG: CGUIWindowManager::PreviousWindow: Activate new
  1034. 17:12:06 T:848   DEBUG: ------ Window Init (Home.xml) ------
  1035. 17:12:06 T:848    INFO: Loading skin file: Home.xml
  1036. 17:12:07 T:848   DEBUG: CApplication::ExecuteXBMCAction : Translating ClearProperty(DontRunTVShowScripts,Home)
  1037. 17:12:07 T:848   DEBUG: CApplication::ExecuteXBMCAction : To ClearProperty(DontRunTVShowScripts,Home)
  1038. 17:12:23 T:848   DEBUG: SDLKeyboard: scancode: 01, sym: 001b, unicode: 001b, modifier: 0
  1039. 17:12:23 T:848   DEBUG: CApplication::OnKey: escape (f01b) pressed, action is PreviousMenu
  1040. 17:12:23 T:848   DEBUG: CGUIWindowManager::PreviousWindow: Deactivate
  1041. 17:12:24 T:848   DEBUG: SDLKeyboard: scancode: 01, sym: 001b, unicode: 001b, modifier: 0
  1042. 17:12:24 T:848   DEBUG: CApplication::OnKey: escape (f01b) pressed, action is PreviousMenu
  1043. 17:12:24 T:848   DEBUG: CGUIWindowManager::PreviousWindow: Deactivate
  1044. 17:12:25 T:848   DEBUG: SDLKeyboard: scancode: 4d, sym: 0113, unicode: 0000, modifier: 0
  1045. 17:12:25 T:848   DEBUG: CApplication::OnKey: right (f083) pressed, action is Right
  1046. 17:12:25 T:848   DEBUG: SDLKeyboard: scancode: 4d, sym: 0113, unicode: 0000, modifier: 0
  1047. 17:12:25 T:848   DEBUG: CApplication::OnKey: right (f083) pressed, action is Right
  1048. 17:12:25 T:848   DEBUG: SDLKeyboard: scancode: 4d, sym: 0113, unicode: 0000, modifier: 0
  1049. 17:12:25 T:848   DEBUG: CApplication::OnKey: right (f083) pressed, action is Right
  1050. 17:12:26 T:848   DEBUG: SDLKeyboard: scancode: 4d, sym: 0113, unicode: 0000, modifier: 0
  1051. 17:12:26 T:848   DEBUG: CApplication::OnKey: right (f083) pressed, action is Right
  1052. 17:12:26 T:848   DEBUG: SDLKeyboard: scancode: 4d, sym: 0113, unicode: 0000, modifier: 0
  1053. 17:12:26 T:848   DEBUG: CApplication::OnKey: right (f083) pressed, action is Right
  1054. 17:12:27 T:848   DEBUG: SDLKeyboard: scancode: 4d, sym: 0113, unicode: 0000, modifier: 0
  1055. 17:12:27 T:848   DEBUG: CApplication::OnKey: right (f083) pressed, action is Right
  1056. 17:12:27 T:848   DEBUG: SDLKeyboard: scancode: 4d, sym: 0113, unicode: 0000, modifier: 0
  1057. 17:12:27 T:848   DEBUG: CApplication::OnKey: right (f083) pressed, action is Right
  1058. 17:12:28 T:848   DEBUG: SDLKeyboard: scancode: 1c, sym: 000d, unicode: 000d, modifier: 0
  1059. 17:12:28 T:848   DEBUG: CApplication::OnKey: return (f00d) pressed, action is Select
  1060. 17:12:28 T:848   DEBUG: CApplication::ExecuteXBMCAction : Translating ActivateWindow(Settings)
  1061. 17:12:28 T:848   DEBUG: CApplication::ExecuteXBMCAction : To ActivateWindow(Settings)
  1062. 17:12:28 T:848   DEBUG: Activating window ID: 10004
  1063. 17:12:28 T:848   DEBUG: ------ Window Deinit (Home.xml) ------
  1064. 17:12:28 T:848   DEBUG: CApplication::ExecuteXBMCAction : Translating CancelAlarm(WidgetMove,true)
  1065. 17:12:28 T:848   DEBUG: CApplication::ExecuteXBMCAction : To CancelAlarm(WidgetMove,true)
  1066. 17:12:28 T:848   DEBUG: CApplication::ExecuteXBMCAction : Translating CancelAlarm(WidgetMoveTwo,true)
  1067. 17:12:28 T:848   DEBUG: CApplication::ExecuteXBMCAction : To CancelAlarm(WidgetMoveTwo,true)
  1068. 17:12:28 T:848   DEBUG: ------ Window Init (Settings.xml) ------
  1069. 17:12:28 T:848    INFO: Loading skin file: Settings.xml
  1070. 17:12:28 T:240   DEBUG: CImageLoader::DoWork - took 102 ms to load special://masterprofile/Thumbnails/3/356637a1.jpg
  1071. 17:12:28 T:1844   DEBUG: CImageLoader::DoWork - took 107 ms to load C:\Users\Zookeeper\AppData\Roaming\XBMC\addons\Aeon-Nox\media\settings\settings_intframe_bottom.png
  1072. 17:12:29 T:848   DEBUG: SDLKeyboard: scancode: 50, sym: 0112, unicode: 0000, modifier: 0
  1073. 17:12:29 T:848   DEBUG: CApplication::OnKey: down (f081) pressed, action is Down
  1074. 17:12:29 T:848   DEBUG: SDLKeyboard: scancode: 50, sym: 0112, unicode: 0000, modifier: 0
  1075. 17:12:29 T:848   DEBUG: CApplication::OnKey: down (f081) pressed, action is Down
  1076. 17:12:30 T:848   DEBUG: SDLKeyboard: scancode: 48, sym: 0111, unicode: 0000, modifier: 0
  1077. 17:12:30 T:848   DEBUG: CApplication::OnKey: up (f080) pressed, action is Up
  1078. 17:12:30 T:848   DEBUG: SDLKeyboard: scancode: 48, sym: 0111, unicode: 0000, modifier: 0
  1079. 17:12:30 T:848   DEBUG: CApplication::OnKey: up (f080) pressed, action is Up
  1080. 17:12:30 T:848   DEBUG: SDLKeyboard: scancode: 1c, sym: 000d, unicode: 000d, modifier: 0
  1081. 17:12:30 T:848   DEBUG: CApplication::OnKey: return (f00d) pressed, action is Select
  1082. 17:12:30 T:848   DEBUG: CApplication::ExecuteXBMCAction : Translating ActivateWindow(SystemSettings)
  1083. 17:12:30 T:848   DEBUG: CApplication::ExecuteXBMCAction : To ActivateWindow(SystemSettings)
  1084. 17:12:30 T:848   DEBUG: Activating window ID: 10016
  1085. 17:12:30 T:848   DEBUG: ------ Window Deinit (Settings.xml) ------
  1086. 17:12:30 T:848   DEBUG: ------ Window Init (SettingsCategory.xml) ------
  1087. 17:12:30 T:848    INFO: Loading skin file: SettingsCategory.xml
  1088. 17:12:32 T:848   DEBUG: SDLKeyboard: scancode: 50, sym: 0112, unicode: 0000, modifier: 0
  1089. 17:12:32 T:848   DEBUG: CApplication::OnKey: down (f081) pressed, action is Down
  1090. 17:12:32 T:848   DEBUG: CWin32WASAPI::EnumerateAudioSinks: found endpoint device: Digital Audio (S/PDIF) (2- High Definition Audio Device)
  1091. 17:12:32 T:848   DEBUG: CWin32WASAPI::EnumerateAudioSinks: found endpoint device: NVIDIA HDMI Out (NVIDIA High Definition Audio)
  1092. 17:12:32 T:848   DEBUG: SDLKeyboard: scancode: 50, sym: 0112, unicode: 0000, modifier: 0
  1093. 17:12:32 T:848   DEBUG: CApplication::OnKey: down (f081) pressed, action is Down
  1094. 17:12:32 T:848   DEBUG: SDLKeyboard: scancode: 50, sym: 0112, unicode: 0000, modifier: 0
  1095. 17:12:32 T:848   DEBUG: CApplication::OnKey: down (f081) pressed, action is Down
  1096. 17:12:32 T:848   DEBUG: SDLKeyboard: scancode: 50, sym: 0112, unicode: 0000, modifier: 0
  1097. 17:12:32 T:848   DEBUG: CApplication::OnKey: down (f081) pressed, action is Down
  1098. 17:12:33 T:848   DEBUG: SDLKeyboard: scancode: 4d, sym: 0113, unicode: 0000, modifier: 0
  1099. 17:12:33 T:848   DEBUG: CApplication::OnKey: right (f083) pressed, action is Right
  1100. 17:12:33 T:848   DEBUG: SDLKeyboard: scancode: 1c, sym: 000d, unicode: 000d, modifier: 0
  1101. 17:12:33 T:848   DEBUG: CApplication::OnKey: return (f00d) pressed, action is Select
  1102. 17:12:33 T:848  NOTICE: Disabled debug logging due to GUI setting. Level 0.
  1103. 17:12:33 T:848  NOTICE: Log level changed to 0
  1104. 17:12:37 T:848  NOTICE: Storing total System Uptime
  1105. 17:12:37 T:848  NOTICE: Saving settings
  1106. 17:12:37 T:848  NOTICE: stop all
  1107. 17:12:37 T:848  NOTICE: ES: Stopping event server
  1108. 17:12:37 T:848  NOTICE: stopping zeroconf publishing
  1109. 17:12:37 T:860  NOTICE: ES: UDP Event server stopped
  1110. 17:12:37 T:848  NOTICE: stop sap announcement listener
  1111. 17:12:37 T:848  NOTICE: clean cached files!
  1112. 17:12:37 T:848  NOTICE: unload skin
  1113. 17:12:37 T:848   ERROR: ADDON: extension 'downloader\' is not currently supported for service addon
  1114. 17:12:37 T:848  NOTICE: stop python
  1115. 17:12:37 T:848  NOTICE: stopped
  1116. 17:12:37 T:848  NOTICE: destroy
  1117. 17:12:37 T:848  NOTICE: closing down remote control service
  1118. 17:12:37 T:848  NOTICE: unload sections
  1119. 17:12:37 T:848  NOTICE: destroy
  1120. 17:12:37 T:848 WARNING: Attempted to remove window 10013 from the window manager when it didn't exist
  1121. 17:12:37 T:848 WARNING: Attempted to remove window 10014 from the window manager when it didn't exist
  1122. 17:12:37 T:848 WARNING: Attempted to remove window 10015 from the window manager when it didn't exist
  1123. 17:12:37 T:848 WARNING: Attempted to remove window 10016 from the window manager when it didn't exist
  1124. 17:12:37 T:848 WARNING: Attempted to remove window 10017 from the window manager when it didn't exist
  1125. 17:12:37 T:848 WARNING: Attempted to remove window 10018 from the window manager when it didn't exist
  1126. 17:12:37 T:848 WARNING: Attempted to remove window 10019 from the window manager when it didn't exist
  1127. 17:12:37 T:848 WARNING: Attempted to remove window 10107 from the window manager when it didn't exist
  1128. 17:12:37 T:848 WARNING: Attempted to remove window 10115 from the window manager when it didn't exist
  1129. 17:12:37 T:848 WARNING: Attempted to remove window 10104 from the window manager when it didn't exist
  1130. 17:12:37 T:848  NOTICE: closing down remote control service
  1131. 17:12:37 T:848  NOTICE: unload sections
  1132. 17:12:37 T:848  NOTICE: application stopped...